<?xml version="1.0" encoding="UTF-8" standalone="no" ?>
<gpx xmlns="http://www.topografix.com/GPX/1/1" xmlns:xsi="http://www.w3.org/2001/XMLSchema-instance" xsi:schemaLocation="http://www.topografix.com/GPX/1/1 http://www.topografix.com/GPX/1/1/gpx.xsd" version="1.1" creator="VisuGPX - https://www.visugpx.com">
  <metadata>
    <name>83 - L - Carcès - Château - Les Roumanions , Parcours Sportif</name>
    <desc><![CDATA[83 - L - Carcès]]></desc>
  </metadata>
  <wpt lat="43.47771" lon="6.18327">
    <ele>131</ele>
    <name><![CDATA[]]></name>
    <type><![CDATA[GENERIC]]></type>
  </wpt>
  <wpt lat="43.47777" lon="6.18347">
    <ele>130</ele>
    <name><![CDATA[]]></name>
    <type><![CDATA[GENERIC]]></type>
  </wpt>
  <trk>
    <name><![CDATA[Randonnée du 31/03/2025 à 18:41]]></name>
    <trkseg>
      <trkpt lat="43.47777" lon="6.18347">
        <ele>130</ele>
        <time>2025-03-31T07:50:44.000Z</time>
      </trkpt>
      <trkpt lat="43.47765" lon="6.18344">
        <ele>131</ele>
        <time>2025-03-31T07:51:08.000Z</time>
      </trkpt>
      <trkpt lat="43.47754" lon="6.18341">
        <ele>131</ele>
        <time>2025-03-31T07:51:21.000Z</time>
      </trkpt>
      <trkpt lat="43.47744" lon="6.18345">
        <ele>132</ele>
        <time>2025-03-31T07:51:43.000Z</time>
      </trkpt>
      <trkpt lat="43.47746" lon="6.18332">
        <ele>132</ele>
        <time>2025-03-31T07:51:54.000Z</time>
      </trkpt>
      <trkpt lat="43.47747" lon="6.18319">
        <ele>132</ele>
        <time>2025-03-31T07:52:05.000Z</time>
      </trkpt>
      <trkpt lat="43.47749" lon="6.18306">
        <ele>132</ele>
        <time>2025-03-31T07:52:16.000Z</time>
      </trkpt>
      <trkpt lat="43.47752" lon="6.18296">
        <ele>132</ele>
        <time>2025-03-31T07:52:26.000Z</time>
      </trkpt>
      <trkpt lat="43.47751" lon="6.18287">
        <ele>132</ele>
        <time>2025-03-31T07:52:34.000Z</time>
      </trkpt>
      <trkpt lat="43.47753" lon="6.18277">
        <ele>132</ele>
        <time>2025-03-31T07:52:43.000Z</time>
      </trkpt>
      <trkpt lat="43.47791" lon="6.18283">
        <ele>126</ele>
        <time>2025-03-31T07:53:27.000Z</time>
      </trkpt>
      <trkpt lat="43.47797" lon="6.18285">
        <ele>120</ele>
        <time>2025-03-31T07:53:35.000Z</time>
      </trkpt>
      <trkpt lat="43.47811" lon="6.18288">
        <ele>118</ele>
        <time>2025-03-31T07:53:51.000Z</time>
      </trkpt>
      <trkpt lat="43.47819" lon="6.1829">
        <ele>122</ele>
        <time>2025-03-31T07:54:42.000Z</time>
      </trkpt>
      <trkpt lat="43.47826" lon="6.18284">
        <ele>127</ele>
        <time>2025-03-31T07:55:43.000Z</time>
      </trkpt>
      <trkpt lat="43.47828" lon="6.18303">
        <ele>126</ele>
        <time>2025-03-31T07:55:59.000Z</time>
      </trkpt>
      <trkpt lat="43.47829" lon="6.1832">
        <ele>124</ele>
        <time>2025-03-31T07:56:13.000Z</time>
      </trkpt>
      <trkpt lat="43.47833" lon="6.18313">
        <ele>128</ele>
        <time>2025-03-31T07:57:02.000Z</time>
      </trkpt>
      <trkpt lat="43.47838" lon="6.18323">
        <ele>126</ele>
        <time>2025-03-31T07:57:12.000Z</time>
      </trkpt>
      <trkpt lat="43.47843" lon="6.18319">
        <ele>129</ele>
        <time>2025-03-31T07:57:50.000Z</time>
      </trkpt>
      <trkpt lat="43.47846" lon="6.18312">
        <ele>130</ele>
        <time>2025-03-31T07:58:08.000Z</time>
      </trkpt>
      <trkpt lat="43.4786" lon="6.18305">
        <ele>130</ele>
        <time>2025-03-31T07:58:25.000Z</time>
      </trkpt>
      <trkpt lat="43.47863" lon="6.18295">
        <ele>131</ele>
        <time>2025-03-31T07:58:45.000Z</time>
      </trkpt>
      <trkpt lat="43.47867" lon="6.18285">
        <ele>131</ele>
        <time>2025-03-31T07:58:54.000Z</time>
      </trkpt>
      <trkpt lat="43.47874" lon="6.18265">
        <ele>131</ele>
        <time>2025-03-31T07:59:13.000Z</time>
      </trkpt>
      <trkpt lat="43.47878" lon="6.18255">
        <ele>132</ele>
        <time>2025-03-31T07:59:33.000Z</time>
      </trkpt>
      <trkpt lat="43.47882" lon="6.18245">
        <ele>132</ele>
        <time>2025-03-31T07:59:42.000Z</time>
      </trkpt>
      <trkpt lat="43.47876" lon="6.18236">
        <ele>132</ele>
        <time>2025-03-31T07:59:52.000Z</time>
      </trkpt>
      <trkpt lat="43.4787" lon="6.18227">
        <ele>132</ele>
        <time>2025-03-31T08:00:02.000Z</time>
      </trkpt>
      <trkpt lat="43.47864" lon="6.18217">
        <ele>131</ele>
        <time>2025-03-31T08:00:12.000Z</time>
      </trkpt>
      <trkpt lat="43.47858" lon="6.18208">
        <ele>131</ele>
        <time>2025-03-31T08:00:22.000Z</time>
      </trkpt>
      <trkpt lat="43.47852" lon="6.18199">
        <ele>131</ele>
        <time>2025-03-31T08:00:32.000Z</time>
      </trkpt>
      <trkpt lat="43.47846" lon="6.1819">
        <ele>131</ele>
        <time>2025-03-31T08:00:42.000Z</time>
      </trkpt>
      <trkpt lat="43.47849" lon="6.1818">
        <ele>131</ele>
        <time>2025-03-31T08:00:51.000Z</time>
      </trkpt>
      <trkpt lat="43.47853" lon="6.18171">
        <ele>131</ele>
        <time>2025-03-31T08:01:00.000Z</time>
      </trkpt>
      <trkpt lat="43.47856" lon="6.18162">
        <ele>131</ele>
        <time>2025-03-31T08:01:09.000Z</time>
      </trkpt>
      <trkpt lat="43.4786" lon="6.18152">
        <ele>131</ele>
        <time>2025-03-31T08:01:18.000Z</time>
      </trkpt>
      <trkpt lat="43.47854" lon="6.18133">
        <ele>132</ele>
        <time>2025-03-31T08:01:45.000Z</time>
      </trkpt>
      <trkpt lat="43.47849" lon="6.18115">
        <ele>132</ele>
        <time>2025-03-31T08:02:02.000Z</time>
      </trkpt>
      <trkpt lat="43.47861" lon="6.1811">
        <ele>132</ele>
        <time>2025-03-31T08:02:17.000Z</time>
      </trkpt>
      <trkpt lat="43.47869" lon="6.18105">
        <ele>132</ele>
        <time>2025-03-31T08:02:27.000Z</time>
      </trkpt>
      <trkpt lat="43.47877" lon="6.181">
        <ele>132</ele>
        <time>2025-03-31T08:02:37.000Z</time>
      </trkpt>
      <trkpt lat="43.47884" lon="6.18095">
        <ele>132</ele>
        <time>2025-03-31T08:02:47.000Z</time>
      </trkpt>
      <trkpt lat="43.47892" lon="6.1809">
        <ele>132</ele>
        <time>2025-03-31T08:02:57.000Z</time>
      </trkpt>
      <trkpt lat="43.479" lon="6.18086">
        <ele>132</ele>
        <time>2025-03-31T08:03:07.000Z</time>
      </trkpt>
      <trkpt lat="43.47908" lon="6.18081">
        <ele>132</ele>
        <time>2025-03-31T08:03:17.000Z</time>
      </trkpt>
      <trkpt lat="43.47915" lon="6.18076">
        <ele>132</ele>
        <time>2025-03-31T08:03:27.000Z</time>
      </trkpt>
      <trkpt lat="43.47923" lon="6.18071">
        <ele>132</ele>
        <time>2025-03-31T08:03:37.000Z</time>
      </trkpt>
      <trkpt lat="43.47931" lon="6.18067">
        <ele>132</ele>
        <time>2025-03-31T08:03:47.000Z</time>
      </trkpt>
      <trkpt lat="43.47939" lon="6.18062">
        <ele>133</ele>
        <time>2025-03-31T08:04:07.000Z</time>
      </trkpt>
      <trkpt lat="43.47946" lon="6.18057">
        <ele>133</ele>
        <time>2025-03-31T08:04:17.000Z</time>
      </trkpt>
      <trkpt lat="43.47954" lon="6.18052">
        <ele>133</ele>
        <time>2025-03-31T08:04:27.000Z</time>
      </trkpt>
      <trkpt lat="43.47962" lon="6.18047">
        <ele>133</ele>
        <time>2025-03-31T08:04:37.000Z</time>
      </trkpt>
      <trkpt lat="43.4797" lon="6.18043">
        <ele>133</ele>
        <time>2025-03-31T08:04:47.000Z</time>
      </trkpt>
      <trkpt lat="43.47967" lon="6.18029">
        <ele>133</ele>
        <time>2025-03-31T08:04:58.000Z</time>
      </trkpt>
      <trkpt lat="43.47976" lon="6.18024">
        <ele>133</ele>
        <time>2025-03-31T08:05:09.000Z</time>
      </trkpt>
      <trkpt lat="43.47985" lon="6.18019">
        <ele>133</ele>
        <time>2025-03-31T08:05:20.000Z</time>
      </trkpt>
      <trkpt lat="43.47994" lon="6.18014">
        <ele>133</ele>
        <time>2025-03-31T08:05:31.000Z</time>
      </trkpt>
      <trkpt lat="43.48003" lon="6.18008">
        <ele>133</ele>
        <time>2025-03-31T08:05:42.000Z</time>
      </trkpt>
      <trkpt lat="43.48012" lon="6.18003">
        <ele>133</ele>
        <time>2025-03-31T08:05:53.000Z</time>
      </trkpt>
      <trkpt lat="43.48021" lon="6.17998">
        <ele>133</ele>
        <time>2025-03-31T08:06:04.000Z</time>
      </trkpt>
      <trkpt lat="43.4803" lon="6.17992">
        <ele>133</ele>
        <time>2025-03-31T08:06:15.000Z</time>
      </trkpt>
      <trkpt lat="43.48039" lon="6.17987">
        <ele>133</ele>
        <time>2025-03-31T08:06:26.000Z</time>
      </trkpt>
      <trkpt lat="43.48048" lon="6.17982">
        <ele>133</ele>
        <time>2025-03-31T08:06:37.000Z</time>
      </trkpt>
      <trkpt lat="43.48057" lon="6.17977">
        <ele>133</ele>
        <time>2025-03-31T08:06:48.000Z</time>
      </trkpt>
      <trkpt lat="43.48066" lon="6.17971">
        <ele>133</ele>
        <time>2025-03-31T08:06:59.000Z</time>
      </trkpt>
      <trkpt lat="43.48075" lon="6.17966">
        <ele>133</ele>
        <time>2025-03-31T08:07:10.000Z</time>
      </trkpt>
      <trkpt lat="43.48084" lon="6.17961">
        <ele>133</ele>
        <time>2025-03-31T08:07:21.000Z</time>
      </trkpt>
      <trkpt lat="43.48093" lon="6.17955">
        <ele>133</ele>
        <time>2025-03-31T08:07:32.000Z</time>
      </trkpt>
      <trkpt lat="43.48102" lon="6.1795">
        <ele>133</ele>
        <time>2025-03-31T08:07:43.000Z</time>
      </trkpt>
      <trkpt lat="43.48111" lon="6.17945">
        <ele>133</ele>
        <time>2025-03-31T08:07:54.000Z</time>
      </trkpt>
      <trkpt lat="43.48124" lon="6.17936">
        <ele>134</ele>
        <time>2025-03-31T08:08:21.000Z</time>
      </trkpt>
      <trkpt lat="43.48131" lon="6.17932">
        <ele>134</ele>
        <time>2025-03-31T08:08:30.000Z</time>
      </trkpt>
      <trkpt lat="43.48138" lon="6.17928">
        <ele>134</ele>
        <time>2025-03-31T08:08:39.000Z</time>
      </trkpt>
      <trkpt lat="43.48145" lon="6.17924">
        <ele>134</ele>
        <time>2025-03-31T08:08:48.000Z</time>
      </trkpt>
      <trkpt lat="43.48152" lon="6.1792">
        <ele>134</ele>
        <time>2025-03-31T08:08:57.000Z</time>
      </trkpt>
      <trkpt lat="43.48166" lon="6.17911">
        <ele>134</ele>
        <time>2025-03-31T08:09:14.000Z</time>
      </trkpt>
      <trkpt lat="43.48172" lon="6.17907">
        <ele>134</ele>
        <time>2025-03-31T08:09:23.000Z</time>
      </trkpt>
      <trkpt lat="43.48179" lon="6.17903">
        <ele>134</ele>
        <time>2025-03-31T08:09:32.000Z</time>
      </trkpt>
      <trkpt lat="43.48193" lon="6.17894">
        <ele>135</ele>
        <time>2025-03-31T08:09:59.000Z</time>
      </trkpt>
      <trkpt lat="43.48207" lon="6.17886">
        <ele>135</ele>
        <time>2025-03-31T08:10:16.000Z</time>
      </trkpt>
      <trkpt lat="43.48214" lon="6.17882">
        <ele>135</ele>
        <time>2025-03-31T08:10:25.000Z</time>
      </trkpt>
      <trkpt lat="43.48221" lon="6.17878">
        <ele>136</ele>
        <time>2025-03-31T08:10:44.000Z</time>
      </trkpt>
      <trkpt lat="43.4822" lon="6.17863">
        <ele>136</ele>
        <time>2025-03-31T08:10:56.000Z</time>
      </trkpt>
      <trkpt lat="43.48219" lon="6.17849">
        <ele>137</ele>
        <time>2025-03-31T08:11:18.000Z</time>
      </trkpt>
      <trkpt lat="43.48218" lon="6.17835">
        <ele>137</ele>
        <time>2025-03-31T08:11:30.000Z</time>
      </trkpt>
      <trkpt lat="43.48217" lon="6.17821">
        <ele>137</ele>
        <time>2025-03-31T08:11:42.000Z</time>
      </trkpt>
      <trkpt lat="43.48219" lon="6.17793">
        <ele>137</ele>
        <time>2025-03-31T08:12:06.000Z</time>
      </trkpt>
      <trkpt lat="43.48222" lon="6.17764">
        <ele>137</ele>
        <time>2025-03-31T08:12:30.000Z</time>
      </trkpt>
      <trkpt lat="43.48222" lon="6.17741">
        <ele>136</ele>
        <time>2025-03-31T08:12:49.000Z</time>
      </trkpt>
      <trkpt lat="43.48222" lon="6.17718">
        <ele>135</ele>
        <time>2025-03-31T08:13:08.000Z</time>
      </trkpt>
      <trkpt lat="43.48222" lon="6.17695">
        <ele>135</ele>
        <time>2025-03-31T08:13:27.000Z</time>
      </trkpt>
      <trkpt lat="43.48222" lon="6.17671">
        <ele>135</ele>
        <time>2025-03-31T08:13:46.000Z</time>
      </trkpt>
      <trkpt lat="43.4822" lon="6.17648">
        <ele>134</ele>
        <time>2025-03-31T08:14:06.000Z</time>
      </trkpt>
      <trkpt lat="43.48218" lon="6.17624">
        <ele>134</ele>
        <time>2025-03-31T08:14:26.000Z</time>
      </trkpt>
      <trkpt lat="43.48216" lon="6.17601">
        <ele>134</ele>
        <time>2025-03-31T08:14:46.000Z</time>
      </trkpt>
      <trkpt lat="43.48214" lon="6.17577">
        <ele>134</ele>
        <time>2025-03-31T08:15:06.000Z</time>
      </trkpt>
      <trkpt lat="43.4822" lon="6.1757">
        <ele>134</ele>
        <time>2025-03-31T08:15:15.000Z</time>
      </trkpt>
      <trkpt lat="43.48225" lon="6.17562">
        <ele>135</ele>
        <time>2025-03-31T08:15:34.000Z</time>
      </trkpt>
      <trkpt lat="43.48235" lon="6.17551">
        <ele>135</ele>
        <time>2025-03-31T08:15:48.000Z</time>
      </trkpt>
      <trkpt lat="43.48237" lon="6.17566">
        <ele>136</ele>
        <time>2025-03-31T08:16:11.000Z</time>
      </trkpt>
      <trkpt lat="43.48236" lon="6.17579">
        <ele>136</ele>
        <time>2025-03-31T08:16:22.000Z</time>
      </trkpt>
      <trkpt lat="43.48236" lon="6.17592">
        <ele>136</ele>
        <time>2025-03-31T08:16:33.000Z</time>
      </trkpt>
      <trkpt lat="43.48239" lon="6.17604">
        <ele>136</ele>
        <time>2025-03-31T08:16:44.000Z</time>
      </trkpt>
      <trkpt lat="43.48244" lon="6.17615">
        <ele>137</ele>
        <time>2025-03-31T08:17:05.000Z</time>
      </trkpt>
      <trkpt lat="43.4825" lon="6.1761">
        <ele>138</ele>
        <time>2025-03-31T08:17:23.000Z</time>
      </trkpt>
      <trkpt lat="43.48255" lon="6.17605">
        <ele>142</ele>
        <time>2025-03-31T08:18:12.000Z</time>
      </trkpt>
      <trkpt lat="43.48265" lon="6.17602">
        <ele>146</ele>
        <time>2025-03-31T08:19:05.000Z</time>
      </trkpt>
      <trkpt lat="43.48275" lon="6.17596">
        <ele>149</ele>
        <time>2025-03-31T08:19:48.000Z</time>
      </trkpt>
      <trkpt lat="43.48284" lon="6.17593">
        <ele>151</ele>
        <time>2025-03-31T08:20:19.000Z</time>
      </trkpt>
      <trkpt lat="43.48292" lon="6.17591">
        <ele>153</ele>
        <time>2025-03-31T08:20:49.000Z</time>
      </trkpt>
      <trkpt lat="43.48299" lon="6.1759">
        <ele>154</ele>
        <time>2025-03-31T08:21:07.000Z</time>
      </trkpt>
      <trkpt lat="43.48308" lon="6.1759">
        <ele>154</ele>
        <time>2025-03-31T08:21:17.000Z</time>
      </trkpt>
      <trkpt lat="43.48317" lon="6.17589">
        <ele>156</ele>
        <time>2025-03-31T08:21:48.000Z</time>
      </trkpt>
      <trkpt lat="43.48324" lon="6.17592">
        <ele>157</ele>
        <time>2025-03-31T08:22:07.000Z</time>
      </trkpt>
      <trkpt lat="43.48332" lon="6.17595">
        <ele>158</ele>
        <time>2025-03-31T08:22:26.000Z</time>
      </trkpt>
      <trkpt lat="43.48337" lon="6.17591">
        <ele>159</ele>
        <time>2025-03-31T08:22:43.000Z</time>
      </trkpt>
      <trkpt lat="43.48343" lon="6.17586">
        <ele>159</ele>
        <time>2025-03-31T08:22:51.000Z</time>
      </trkpt>
      <trkpt lat="43.4835" lon="6.17583">
        <ele>162</ele>
        <time>2025-03-31T08:23:30.000Z</time>
      </trkpt>
      <trkpt lat="43.48357" lon="6.1758">
        <ele>163</ele>
        <time>2025-03-31T08:23:49.000Z</time>
      </trkpt>
      <trkpt lat="43.48364" lon="6.17581">
        <ele>164</ele>
        <time>2025-03-31T08:24:08.000Z</time>
      </trkpt>
      <trkpt lat="43.48371" lon="6.17582">
        <ele>164</ele>
        <time>2025-03-31T08:24:16.000Z</time>
      </trkpt>
      <trkpt lat="43.48377" lon="6.17584">
        <ele>165</ele>
        <time>2025-03-31T08:24:34.000Z</time>
      </trkpt>
      <trkpt lat="43.48387" lon="6.17581">
        <ele>164</ele>
        <time>2025-03-31T08:24:45.000Z</time>
      </trkpt>
      <trkpt lat="43.4839" lon="6.17591">
        <ele>166</ele>
        <time>2025-03-31T08:25:15.000Z</time>
      </trkpt>
      <trkpt lat="43.48394" lon="6.17602">
        <ele>167</ele>
        <time>2025-03-31T08:25:35.000Z</time>
      </trkpt>
      <trkpt lat="43.48399" lon="6.17614">
        <ele>169</ele>
        <time>2025-03-31T08:26:07.000Z</time>
      </trkpt>
      <trkpt lat="43.48402" lon="6.17627">
        <ele>171</ele>
        <time>2025-03-31T08:26:39.000Z</time>
      </trkpt>
      <trkpt lat="43.48407" lon="6.17635">
        <ele>172</ele>
        <time>2025-03-31T08:26:58.000Z</time>
      </trkpt>
      <trkpt lat="43.48411" lon="6.17645">
        <ele>173</ele>
        <time>2025-03-31T08:27:18.000Z</time>
      </trkpt>
      <trkpt lat="43.48415" lon="6.17656">
        <ele>173</ele>
        <time>2025-03-31T08:27:28.000Z</time>
      </trkpt>
      <trkpt lat="43.48425" lon="6.17656">
        <ele>175</ele>
        <time>2025-03-31T08:27:59.000Z</time>
      </trkpt>
      <trkpt lat="43.48434" lon="6.17656">
        <ele>177</ele>
        <time>2025-03-31T08:28:30.000Z</time>
      </trkpt>
      <trkpt lat="43.48444" lon="6.17657">
        <ele>178</ele>
        <time>2025-03-31T08:28:51.000Z</time>
      </trkpt>
      <trkpt lat="43.48453" lon="6.17657">
        <ele>180</ele>
        <time>2025-03-31T08:29:22.000Z</time>
      </trkpt>
      <trkpt lat="43.48463" lon="6.17658">
        <ele>182</ele>
        <time>2025-03-31T08:29:53.000Z</time>
      </trkpt>
      <trkpt lat="43.48472" lon="6.17658">
        <ele>183</ele>
        <time>2025-03-31T08:30:14.000Z</time>
      </trkpt>
      <trkpt lat="43.48482" lon="6.17658">
        <ele>184</ele>
        <time>2025-03-31T08:30:35.000Z</time>
      </trkpt>
      <trkpt lat="43.48491" lon="6.17659">
        <ele>185</ele>
        <time>2025-03-31T07:51:06.000Z</time>
      </trkpt>
      <trkpt lat="43.48501" lon="6.1766">
        <ele>188</ele>
        <time>2025-03-31T07:51:17.000Z</time>
      </trkpt>
      <trkpt lat="43.48511" lon="6.17661">
        <ele>188</ele>
        <time>2025-03-31T07:51:28.000Z</time>
      </trkpt>
      <trkpt lat="43.4852" lon="6.17661">
        <ele>189</ele>
        <time>2025-03-31T07:51:41.000Z</time>
      </trkpt>
      <trkpt lat="43.48529" lon="6.17661">
        <ele>190</ele>
        <time>2025-03-31T07:51:56.000Z</time>
      </trkpt>
      <trkpt lat="43.48538" lon="6.17664">
        <ele>192</ele>
        <time>2025-03-31T07:52:06.000Z</time>
      </trkpt>
      <trkpt lat="43.48548" lon="6.17667">
        <ele>193</ele>
        <time>2025-03-31T07:52:22.000Z</time>
      </trkpt>
      <trkpt lat="43.48557" lon="6.1767">
        <ele>193</ele>
        <time>2025-03-31T07:52:36.000Z</time>
      </trkpt>
      <trkpt lat="43.48565" lon="6.17676">
        <ele>194</ele>
        <time>2025-03-31T07:53:03.000Z</time>
      </trkpt>
      <trkpt lat="43.48573" lon="6.17683">
        <ele>195</ele>
        <time>2025-03-31T07:53:13.000Z</time>
      </trkpt>
      <trkpt lat="43.48581" lon="6.17689">
        <ele>196</ele>
        <time>2025-03-31T07:53:24.000Z</time>
      </trkpt>
      <trkpt lat="43.48586" lon="6.177">
        <ele>197</ele>
        <time>2025-03-31T07:53:36.000Z</time>
      </trkpt>
      <trkpt lat="43.48591" lon="6.17711">
        <ele>199</ele>
        <time>2025-03-31T07:53:46.000Z</time>
      </trkpt>
      <trkpt lat="43.486" lon="6.17707">
        <ele>198</ele>
        <time>2025-03-31T07:54:25.000Z</time>
      </trkpt>
      <trkpt lat="43.48609" lon="6.17707">
        <ele>198</ele>
        <time>2025-03-31T07:54:35.000Z</time>
      </trkpt>
      <trkpt lat="43.48619" lon="6.17708">
        <ele>198</ele>
        <time>2025-03-31T07:54:49.000Z</time>
      </trkpt>
      <trkpt lat="43.48628" lon="6.1771">
        <ele>198</ele>
        <time>2025-03-31T07:55:01.000Z</time>
      </trkpt>
      <trkpt lat="43.48639" lon="6.17712">
        <ele>197</ele>
        <time>2025-03-31T07:55:11.000Z</time>
      </trkpt>
      <trkpt lat="43.48646" lon="6.17724">
        <ele>197</ele>
        <time>2025-03-31T07:55:22.000Z</time>
      </trkpt>
      <trkpt lat="43.48652" lon="6.17734">
        <ele>197</ele>
        <time>2025-03-31T07:55:35.000Z</time>
      </trkpt>
      <trkpt lat="43.48655" lon="6.17746">
        <ele>198</ele>
        <time>2025-03-31T07:55:47.000Z</time>
      </trkpt>
      <trkpt lat="43.48661" lon="6.17757">
        <ele>198</ele>
        <time>2025-03-31T07:55:59.000Z</time>
      </trkpt>
      <trkpt lat="43.48662" lon="6.1777">
        <ele>200</ele>
        <time>2025-03-31T07:56:15.000Z</time>
      </trkpt>
      <trkpt lat="43.48665" lon="6.17782">
        <ele>200</ele>
        <time>2025-03-31T07:56:26.000Z</time>
      </trkpt>
      <trkpt lat="43.48666" lon="6.17795">
        <ele>201</ele>
        <time>2025-03-31T07:56:36.000Z</time>
      </trkpt>
      <trkpt lat="43.48666" lon="6.17809">
        <ele>202</ele>
        <time>2025-03-31T07:56:47.000Z</time>
      </trkpt>
      <trkpt lat="43.48674" lon="6.17814">
        <ele>202</ele>
        <time>2025-03-31T07:56:57.000Z</time>
      </trkpt>
      <trkpt lat="43.48683" lon="6.17818">
        <ele>201</ele>
        <time>2025-03-31T07:57:08.000Z</time>
      </trkpt>
      <trkpt lat="43.48691" lon="6.17823">
        <ele>202</ele>
        <time>2025-03-31T07:57:18.000Z</time>
      </trkpt>
      <trkpt lat="43.48692" lon="6.1784">
        <ele>203</ele>
        <time>2025-03-31T07:57:29.000Z</time>
      </trkpt>
      <trkpt lat="43.48694" lon="6.17853">
        <ele>203</ele>
        <time>2025-03-31T07:57:41.000Z</time>
      </trkpt>
      <trkpt lat="43.48696" lon="6.17865">
        <ele>203</ele>
        <time>2025-03-31T07:57:52.000Z</time>
      </trkpt>
      <trkpt lat="43.48696" lon="6.17878">
        <ele>203</ele>
        <time>2025-03-31T07:58:05.000Z</time>
      </trkpt>
      <trkpt lat="43.48691" lon="6.17891">
        <ele>203</ele>
        <time>2025-03-31T07:58:15.000Z</time>
      </trkpt>
      <trkpt lat="43.48682" lon="6.179">
        <ele>203</ele>
        <time>2025-03-31T07:58:26.000Z</time>
      </trkpt>
      <trkpt lat="43.48687" lon="6.17913">
        <ele>203</ele>
        <time>2025-03-31T07:58:36.000Z</time>
      </trkpt>
      <trkpt lat="43.48698" lon="6.17911">
        <ele>203</ele>
        <time>2025-03-31T07:58:47.000Z</time>
      </trkpt>
      <trkpt lat="43.48705" lon="6.17918">
        <ele>203</ele>
        <time>2025-03-31T07:58:57.000Z</time>
      </trkpt>
      <trkpt lat="43.48715" lon="6.17919">
        <ele>203</ele>
        <time>2025-03-31T07:59:12.000Z</time>
      </trkpt>
      <trkpt lat="43.48715" lon="6.17934">
        <ele>203</ele>
        <time>2025-03-31T07:59:22.000Z</time>
      </trkpt>
      <trkpt lat="43.48722" lon="6.17942">
        <ele>203</ele>
        <time>2025-03-31T08:00:04.000Z</time>
      </trkpt>
      <trkpt lat="43.48719" lon="6.1795">
        <ele>203</ele>
        <time>2025-03-31T08:01:47.000Z</time>
      </trkpt>
      <trkpt lat="43.48727" lon="6.17944">
        <ele>203</ele>
        <time>2025-03-31T08:02:39.000Z</time>
      </trkpt>
      <trkpt lat="43.48735" lon="6.17938">
        <ele>203</ele>
        <time>2025-03-31T08:02:57.000Z</time>
      </trkpt>
      <trkpt lat="43.48744" lon="6.17938">
        <ele>203</ele>
        <time>2025-03-31T08:04:46.000Z</time>
      </trkpt>
      <trkpt lat="43.48753" lon="6.1794">
        <ele>204</ele>
        <time>2025-03-31T08:05:01.000Z</time>
      </trkpt>
      <trkpt lat="43.48762" lon="6.17944">
        <ele>204</ele>
        <time>2025-03-31T08:05:19.000Z</time>
      </trkpt>
      <trkpt lat="43.4877" lon="6.17949">
        <ele>204</ele>
        <time>2025-03-31T08:05:31.000Z</time>
      </trkpt>
      <trkpt lat="43.48776" lon="6.1796">
        <ele>204</ele>
        <time>2025-03-31T08:05:42.000Z</time>
      </trkpt>
      <trkpt lat="43.48785" lon="6.17957">
        <ele>204</ele>
        <time>2025-03-31T08:05:55.000Z</time>
      </trkpt>
      <trkpt lat="43.48786" lon="6.17944">
        <ele>204</ele>
        <time>2025-03-31T08:06:10.000Z</time>
      </trkpt>
      <trkpt lat="43.48792" lon="6.1793">
        <ele>204</ele>
        <time>2025-03-31T08:06:27.000Z</time>
      </trkpt>
      <trkpt lat="43.48799" lon="6.17913">
        <ele>205</ele>
        <time>2025-03-31T08:06:37.000Z</time>
      </trkpt>
      <trkpt lat="43.48805" lon="6.17902">
        <ele>205</ele>
        <time>2025-03-31T08:06:51.000Z</time>
      </trkpt>
      <trkpt lat="43.48815" lon="6.17895">
        <ele>205</ele>
        <time>2025-03-31T08:07:19.000Z</time>
      </trkpt>
      <trkpt lat="43.48822" lon="6.17882">
        <ele>205</ele>
        <time>2025-03-31T08:07:29.000Z</time>
      </trkpt>
      <trkpt lat="43.48827" lon="6.17871">
        <ele>204</ele>
        <time>2025-03-31T08:07:48.000Z</time>
      </trkpt>
      <trkpt lat="43.48834" lon="6.17861">
        <ele>204</ele>
        <time>2025-03-31T08:08:00.000Z</time>
      </trkpt>
      <trkpt lat="43.48843" lon="6.17859">
        <ele>204</ele>
        <time>2025-03-31T08:08:10.000Z</time>
      </trkpt>
      <trkpt lat="43.48854" lon="6.17858">
        <ele>204</ele>
        <time>2025-03-31T08:08:20.000Z</time>
      </trkpt>
      <trkpt lat="43.48864" lon="6.17853">
        <ele>204</ele>
        <time>2025-03-31T08:08:50.000Z</time>
      </trkpt>
      <trkpt lat="43.48878" lon="6.17844">
        <ele>203</ele>
        <time>2025-03-31T08:09:00.000Z</time>
      </trkpt>
      <trkpt lat="43.48886" lon="6.17836">
        <ele>203</ele>
        <time>2025-03-31T08:09:10.000Z</time>
      </trkpt>
      <trkpt lat="43.48893" lon="6.17829">
        <ele>202</ele>
        <time>2025-03-31T08:09:26.000Z</time>
      </trkpt>
      <trkpt lat="43.48898" lon="6.17819">
        <ele>202</ele>
        <time>2025-03-31T08:09:45.000Z</time>
      </trkpt>
      <trkpt lat="43.48904" lon="6.17809">
        <ele>201</ele>
        <time>2025-03-31T08:10:07.000Z</time>
      </trkpt>
      <trkpt lat="43.48913" lon="6.17795">
        <ele>200</ele>
        <time>2025-03-31T08:10:18.000Z</time>
      </trkpt>
      <trkpt lat="43.48919" lon="6.17786">
        <ele>200</ele>
        <time>2025-03-31T08:10:46.000Z</time>
      </trkpt>
      <trkpt lat="43.48928" lon="6.17775">
        <ele>198</ele>
        <time>2025-03-31T08:10:56.000Z</time>
      </trkpt>
      <trkpt lat="43.48935" lon="6.17766">
        <ele>198</ele>
        <time>2025-03-31T08:11:12.000Z</time>
      </trkpt>
      <trkpt lat="43.48944" lon="6.17758">
        <ele>197</ele>
        <time>2025-03-31T08:11:22.000Z</time>
      </trkpt>
      <trkpt lat="43.48952" lon="6.17753">
        <ele>196</ele>
        <time>2025-03-31T08:11:38.000Z</time>
      </trkpt>
      <trkpt lat="43.48961" lon="6.17752">
        <ele>196</ele>
        <time>2025-03-31T08:12:04.000Z</time>
      </trkpt>
      <trkpt lat="43.48972" lon="6.17745">
        <ele>194</ele>
        <time>2025-03-31T08:12:15.000Z</time>
      </trkpt>
      <trkpt lat="43.48984" lon="6.17745">
        <ele>194</ele>
        <time>2025-03-31T08:12:25.000Z</time>
      </trkpt>
      <trkpt lat="43.48993" lon="6.17743">
        <ele>193</ele>
        <time>2025-03-31T08:12:43.000Z</time>
      </trkpt>
      <trkpt lat="43.49002" lon="6.17744">
        <ele>192</ele>
        <time>2025-03-31T08:12:58.000Z</time>
      </trkpt>
      <trkpt lat="43.49012" lon="6.17746">
        <ele>192</ele>
        <time>2025-03-31T08:13:09.000Z</time>
      </trkpt>
      <trkpt lat="43.49025" lon="6.17739">
        <ele>192</ele>
        <time>2025-03-31T08:13:19.000Z</time>
      </trkpt>
      <trkpt lat="43.49033" lon="6.17735">
        <ele>192</ele>
        <time>2025-03-31T08:13:35.000Z</time>
      </trkpt>
      <trkpt lat="43.49042" lon="6.1773">
        <ele>191</ele>
        <time>2025-03-31T08:13:48.000Z</time>
      </trkpt>
      <trkpt lat="43.49046" lon="6.17719">
        <ele>191</ele>
        <time>2025-03-31T08:15:20.000Z</time>
      </trkpt>
      <trkpt lat="43.4905" lon="6.17708">
        <ele>192</ele>
        <time>2025-03-31T08:16:05.000Z</time>
      </trkpt>
      <trkpt lat="43.4905" lon="6.17695">
        <ele>192</ele>
        <time>2025-03-31T08:16:15.000Z</time>
      </trkpt>
      <trkpt lat="43.49059" lon="6.17691">
        <ele>193</ele>
        <time>2025-03-31T08:16:33.000Z</time>
      </trkpt>
      <trkpt lat="43.49067" lon="6.17685">
        <ele>193</ele>
        <time>2025-03-31T08:16:45.000Z</time>
      </trkpt>
      <trkpt lat="43.49072" lon="6.17674">
        <ele>194</ele>
        <time>2025-03-31T08:16:56.000Z</time>
      </trkpt>
      <trkpt lat="43.49077" lon="6.17663">
        <ele>196</ele>
        <time>2025-03-31T08:17:11.000Z</time>
      </trkpt>
      <trkpt lat="43.49077" lon="6.17651">
        <ele>196</ele>
        <time>2025-03-31T08:17:24.000Z</time>
      </trkpt>
      <trkpt lat="43.49078" lon="6.17638">
        <ele>199</ele>
        <time>2025-03-31T08:17:47.000Z</time>
      </trkpt>
      <trkpt lat="43.49082" lon="6.17627">
        <ele>201</ele>
        <time>2025-03-31T08:18:06.000Z</time>
      </trkpt>
      <trkpt lat="43.49084" lon="6.17614">
        <ele>203</ele>
        <time>2025-03-31T08:18:22.000Z</time>
      </trkpt>
      <trkpt lat="43.49084" lon="6.17602">
        <ele>204</ele>
        <time>2025-03-31T08:18:35.000Z</time>
      </trkpt>
      <trkpt lat="43.49089" lon="6.17587">
        <ele>206</ele>
        <time>2025-03-31T08:18:45.000Z</time>
      </trkpt>
      <trkpt lat="43.49092" lon="6.17573">
        <ele>207</ele>
        <time>2025-03-31T08:18:56.000Z</time>
      </trkpt>
      <trkpt lat="43.49094" lon="6.17561">
        <ele>207</ele>
        <time>2025-03-31T08:19:08.000Z</time>
      </trkpt>
      <trkpt lat="43.49098" lon="6.17548">
        <ele>208</ele>
        <time>2025-03-31T08:19:18.000Z</time>
      </trkpt>
      <trkpt lat="43.49101" lon="6.17537">
        <ele>209</ele>
        <time>2025-03-31T08:19:30.000Z</time>
      </trkpt>
      <trkpt lat="43.49105" lon="6.17525">
        <ele>209</ele>
        <time>2025-03-31T08:20:50.000Z</time>
      </trkpt>
      <trkpt lat="43.49103" lon="6.17512">
        <ele>210</ele>
        <time>2025-03-31T08:21:00.000Z</time>
      </trkpt>
      <trkpt lat="43.49105" lon="6.17499">
        <ele>211</ele>
        <time>2025-03-31T08:22:16.000Z</time>
      </trkpt>
      <trkpt lat="43.49114" lon="6.17491">
        <ele>211</ele>
        <time>2025-03-31T08:22:26.000Z</time>
      </trkpt>
      <trkpt lat="43.4912" lon="6.17482">
        <ele>212</ele>
        <time>2025-03-31T08:22:46.000Z</time>
      </trkpt>
      <trkpt lat="43.49124" lon="6.1747">
        <ele>212</ele>
        <time>2025-03-31T08:22:59.000Z</time>
      </trkpt>
      <trkpt lat="43.49127" lon="6.17458">
        <ele>212</ele>
        <time>2025-03-31T08:23:10.000Z</time>
      </trkpt>
      <trkpt lat="43.49132" lon="6.17446">
        <ele>212</ele>
        <time>2025-03-31T08:23:20.000Z</time>
      </trkpt>
      <trkpt lat="43.49139" lon="6.17434">
        <ele>212</ele>
        <time>2025-03-31T08:23:30.000Z</time>
      </trkpt>
      <trkpt lat="43.49146" lon="6.17423">
        <ele>212</ele>
        <time>2025-03-31T08:23:41.000Z</time>
      </trkpt>
      <trkpt lat="43.49152" lon="6.17412">
        <ele>212</ele>
        <time>2025-03-31T08:23:51.000Z</time>
      </trkpt>
      <trkpt lat="43.49158" lon="6.174">
        <ele>212</ele>
        <time>2025-03-31T08:24:01.000Z</time>
      </trkpt>
      <trkpt lat="43.49163" lon="6.17388">
        <ele>212</ele>
        <time>2025-03-31T08:24:11.000Z</time>
      </trkpt>
      <trkpt lat="43.49167" lon="6.17377">
        <ele>212</ele>
        <time>2025-03-31T08:24:21.000Z</time>
      </trkpt>
      <trkpt lat="43.49173" lon="6.17365">
        <ele>212</ele>
        <time>2025-03-31T08:24:32.000Z</time>
      </trkpt>
      <trkpt lat="43.49179" lon="6.17353">
        <ele>211</ele>
        <time>2025-03-31T08:24:42.000Z</time>
      </trkpt>
      <trkpt lat="43.49181" lon="6.17339">
        <ele>211</ele>
        <time>2025-03-31T08:24:53.000Z</time>
      </trkpt>
      <trkpt lat="43.49182" lon="6.17326">
        <ele>209</ele>
        <time>2025-03-31T08:25:03.000Z</time>
      </trkpt>
      <trkpt lat="43.49185" lon="6.17314">
        <ele>209</ele>
        <time>2025-03-31T08:25:13.000Z</time>
      </trkpt>
      <trkpt lat="43.49192" lon="6.17303">
        <ele>207</ele>
        <time>2025-03-31T08:25:23.000Z</time>
      </trkpt>
      <trkpt lat="43.49196" lon="6.17292">
        <ele>207</ele>
        <time>2025-03-31T08:25:34.000Z</time>
      </trkpt>
      <trkpt lat="43.49199" lon="6.17279">
        <ele>205</ele>
        <time>2025-03-31T08:25:44.000Z</time>
      </trkpt>
      <trkpt lat="43.49195" lon="6.17267">
        <ele>204</ele>
        <time>2025-03-31T08:25:54.000Z</time>
      </trkpt>
      <trkpt lat="43.49187" lon="6.17259">
        <ele>203</ele>
        <time>2025-03-31T08:26:04.000Z</time>
      </trkpt>
      <trkpt lat="43.49178" lon="6.17254">
        <ele>203</ele>
        <time>2025-03-31T08:26:15.000Z</time>
      </trkpt>
      <trkpt lat="43.4917" lon="6.17248">
        <ele>202</ele>
        <time>2025-03-31T08:26:27.000Z</time>
      </trkpt>
      <trkpt lat="43.49162" lon="6.17241">
        <ele>201</ele>
        <time>2025-03-31T08:26:37.000Z</time>
      </trkpt>
      <trkpt lat="43.49153" lon="6.1724">
        <ele>201</ele>
        <time>2025-03-31T08:27:35.000Z</time>
      </trkpt>
      <trkpt lat="43.49143" lon="6.17246">
        <ele>199</ele>
        <time>2025-03-31T08:27:46.000Z</time>
      </trkpt>
      <trkpt lat="43.49138" lon="6.17257">
        <ele>199</ele>
        <time>2025-03-31T08:29:12.000Z</time>
      </trkpt>
      <trkpt lat="43.4913" lon="6.17264">
        <ele>198</ele>
        <time>2025-03-31T08:29:24.000Z</time>
      </trkpt>
      <trkpt lat="43.49125" lon="6.17274">
        <ele>197</ele>
        <time>2025-03-31T08:29:35.000Z</time>
      </trkpt>
      <trkpt lat="43.49122" lon="6.17286">
        <ele>196</ele>
        <time>2025-03-31T08:29:47.000Z</time>
      </trkpt>
      <trkpt lat="43.4912" lon="6.17299">
        <ele>197</ele>
        <time>2025-03-31T08:29:57.000Z</time>
      </trkpt>
      <trkpt lat="43.49116" lon="6.17311">
        <ele>195</ele>
        <time>2025-03-31T08:30:08.000Z</time>
      </trkpt>
      <trkpt lat="43.49112" lon="6.17324">
        <ele>194</ele>
        <time>2025-03-31T08:30:18.000Z</time>
      </trkpt>
      <trkpt lat="43.4911" lon="6.17336">
        <ele>194</ele>
        <time>2025-03-31T08:30:30.000Z</time>
      </trkpt>
      <trkpt lat="43.49107" lon="6.17348">
        <ele>195</ele>
        <time>2025-03-31T08:30:44.000Z</time>
      </trkpt>
      <trkpt lat="43.49099" lon="6.17355">
        <ele>192</ele>
        <time>2025-03-31T08:30:54.000Z</time>
      </trkpt>
      <trkpt lat="43.49091" lon="6.17362">
        <ele>191</ele>
        <time>2025-03-31T08:31:04.000Z</time>
      </trkpt>
      <trkpt lat="43.49082" lon="6.17367">
        <ele>190</ele>
        <time>2025-03-31T08:31:14.000Z</time>
      </trkpt>
      <trkpt lat="43.49073" lon="6.17367">
        <ele>189</ele>
        <time>2025-03-31T08:31:31.000Z</time>
      </trkpt>
      <trkpt lat="43.49064" lon="6.17363">
        <ele>188</ele>
        <time>2025-03-31T08:31:43.000Z</time>
      </trkpt>
      <trkpt lat="43.49054" lon="6.1736">
        <ele>187</ele>
        <time>2025-03-31T08:31:54.000Z</time>
      </trkpt>
      <trkpt lat="43.49047" lon="6.17351">
        <ele>186</ele>
        <time>2025-03-31T08:32:04.000Z</time>
      </trkpt>
      <trkpt lat="43.49039" lon="6.17342">
        <ele>186</ele>
        <time>2025-03-31T08:32:14.000Z</time>
      </trkpt>
      <trkpt lat="43.49031" lon="6.17335">
        <ele>184</ele>
        <time>2025-03-31T08:32:25.000Z</time>
      </trkpt>
      <trkpt lat="43.49022" lon="6.17331">
        <ele>183</ele>
        <time>2025-03-31T08:32:35.000Z</time>
      </trkpt>
      <trkpt lat="43.49013" lon="6.17329">
        <ele>182</ele>
        <time>2025-03-31T08:32:45.000Z</time>
      </trkpt>
      <trkpt lat="43.49004" lon="6.17329">
        <ele>181</ele>
        <time>2025-03-31T08:32:55.000Z</time>
      </trkpt>
      <trkpt lat="43.48995" lon="6.17332">
        <ele>182</ele>
        <time>2025-03-31T08:33:09.000Z</time>
      </trkpt>
      <trkpt lat="43.48987" lon="6.17337">
        <ele>181</ele>
        <time>2025-03-31T08:33:22.000Z</time>
      </trkpt>
      <trkpt lat="43.48978" lon="6.17341">
        <ele>179</ele>
        <time>2025-03-31T08:33:36.000Z</time>
      </trkpt>
      <trkpt lat="43.48969" lon="6.17343">
        <ele>179</ele>
        <time>2025-03-31T08:33:53.000Z</time>
      </trkpt>
      <trkpt lat="43.4896" lon="6.1734">
        <ele>177</ele>
        <time>2025-03-31T08:34:05.000Z</time>
      </trkpt>
      <trkpt lat="43.48948" lon="6.17342">
        <ele>177</ele>
        <time>2025-03-31T08:34:16.000Z</time>
      </trkpt>
      <trkpt lat="43.48939" lon="6.17345">
        <ele>177</ele>
        <time>2025-03-31T08:34:28.000Z</time>
      </trkpt>
      <trkpt lat="43.4893" lon="6.17345">
        <ele>176</ele>
        <time>2025-03-31T08:34:39.000Z</time>
      </trkpt>
      <trkpt lat="43.4892" lon="6.17348">
        <ele>175</ele>
        <time>2025-03-31T08:34:49.000Z</time>
      </trkpt>
      <trkpt lat="43.48911" lon="6.1735">
        <ele>174</ele>
        <time>2025-03-31T08:35:00.000Z</time>
      </trkpt>
      <trkpt lat="43.48902" lon="6.17351">
        <ele>173</ele>
        <time>2025-03-31T08:35:11.000Z</time>
      </trkpt>
      <trkpt lat="43.48894" lon="6.17358">
        <ele>172</ele>
        <time>2025-03-31T08:35:22.000Z</time>
      </trkpt>
      <trkpt lat="43.48886" lon="6.17364">
        <ele>171</ele>
        <time>2025-03-31T08:35:34.000Z</time>
      </trkpt>
      <trkpt lat="43.48878" lon="6.1737">
        <ele>171</ele>
        <time>2025-03-31T08:35:44.000Z</time>
      </trkpt>
      <trkpt lat="43.48869" lon="6.17375">
        <ele>170</ele>
        <time>2025-03-31T08:35:56.000Z</time>
      </trkpt>
      <trkpt lat="43.48862" lon="6.17381">
        <ele>168</ele>
        <time>2025-03-31T08:36:08.000Z</time>
      </trkpt>
      <trkpt lat="43.48853" lon="6.17389">
        <ele>166</ele>
        <time>2025-03-31T08:36:18.000Z</time>
      </trkpt>
      <trkpt lat="43.48846" lon="6.17397">
        <ele>165</ele>
        <time>2025-03-31T08:36:29.000Z</time>
      </trkpt>
      <trkpt lat="43.48839" lon="6.17406">
        <ele>164</ele>
        <time>2025-03-31T08:36:40.000Z</time>
      </trkpt>
      <trkpt lat="43.48833" lon="6.17416">
        <ele>163</ele>
        <time>2025-03-31T08:36:51.000Z</time>
      </trkpt>
      <trkpt lat="43.48832" lon="6.17429">
        <ele>164</ele>
        <time>2025-03-31T08:37:01.000Z</time>
      </trkpt>
      <trkpt lat="43.48831" lon="6.17444">
        <ele>163</ele>
        <time>2025-03-31T08:37:11.000Z</time>
      </trkpt>
      <trkpt lat="43.4883" lon="6.17456">
        <ele>162</ele>
        <time>2025-03-31T08:37:23.000Z</time>
      </trkpt>
      <trkpt lat="43.48829" lon="6.17469">
        <ele>160</ele>
        <time>2025-03-31T08:37:34.000Z</time>
      </trkpt>
      <trkpt lat="43.48831" lon="6.17481">
        <ele>160</ele>
        <time>2025-03-31T08:37:45.000Z</time>
      </trkpt>
      <trkpt lat="43.48834" lon="6.17493">
        <ele>160</ele>
        <time>2025-03-31T08:37:56.000Z</time>
      </trkpt>
      <trkpt lat="43.48839" lon="6.17504">
        <ele>159</ele>
        <time>2025-03-31T08:38:12.000Z</time>
      </trkpt>
      <trkpt lat="43.48831" lon="6.17512">
        <ele>155</ele>
        <time>2025-03-31T08:39:08.000Z</time>
      </trkpt>
      <trkpt lat="43.48818" lon="6.17514">
        <ele>154</ele>
        <time>2025-03-31T08:39:18.000Z</time>
      </trkpt>
      <trkpt lat="43.48809" lon="6.1751">
        <ele>152</ele>
        <time>2025-03-31T08:39:33.000Z</time>
      </trkpt>
      <trkpt lat="43.48799" lon="6.17506">
        <ele>152</ele>
        <time>2025-03-31T08:39:43.000Z</time>
      </trkpt>
      <trkpt lat="43.4879" lon="6.175">
        <ele>150</ele>
        <time>2025-03-31T08:39:55.000Z</time>
      </trkpt>
      <trkpt lat="43.48781" lon="6.17496">
        <ele>148</ele>
        <time>2025-03-31T08:40:48.000Z</time>
      </trkpt>
      <trkpt lat="43.48772" lon="6.17494">
        <ele>148</ele>
        <time>2025-03-31T08:41:01.000Z</time>
      </trkpt>
      <trkpt lat="43.48763" lon="6.1749">
        <ele>148</ele>
        <time>2025-03-31T08:41:11.000Z</time>
      </trkpt>
      <trkpt lat="43.48753" lon="6.17482">
        <ele>146</ele>
        <time>2025-03-31T08:41:21.000Z</time>
      </trkpt>
      <trkpt lat="43.48748" lon="6.17472">
        <ele>146</ele>
        <time>2025-03-31T08:41:42.000Z</time>
      </trkpt>
      <trkpt lat="43.48742" lon="6.17463">
        <ele>146</ele>
        <time>2025-03-31T08:41:52.000Z</time>
      </trkpt>
      <trkpt lat="43.48734" lon="6.17456">
        <ele>145</ele>
        <time>2025-03-31T08:42:02.000Z</time>
      </trkpt>
      <trkpt lat="43.48725" lon="6.17454">
        <ele>144</ele>
        <time>2025-03-31T08:42:20.000Z</time>
      </trkpt>
      <trkpt lat="43.48716" lon="6.17453">
        <ele>141</ele>
        <time>2025-03-31T08:42:51.000Z</time>
      </trkpt>
      <trkpt lat="43.48706" lon="6.17451">
        <ele>140</ele>
        <time>2025-03-31T08:43:05.000Z</time>
      </trkpt>
      <trkpt lat="43.487" lon="6.17442">
        <ele>138</ele>
        <time>2025-03-31T08:51:14.000Z</time>
      </trkpt>
      <trkpt lat="43.48702" lon="6.1743">
        <ele>137</ele>
        <time>2025-03-31T08:51:24.000Z</time>
      </trkpt>
      <trkpt lat="43.4871" lon="6.17421">
        <ele>137</ele>
        <time>2025-03-31T08:51:34.000Z</time>
      </trkpt>
      <trkpt lat="43.4872" lon="6.17423">
        <ele>138</ele>
        <time>2025-03-31T08:52:03.000Z</time>
      </trkpt>
      <trkpt lat="43.48732" lon="6.17416">
        <ele>136</ele>
        <time>2025-03-31T08:52:14.000Z</time>
      </trkpt>
      <trkpt lat="43.4874" lon="6.1741">
        <ele>136</ele>
        <time>2025-03-31T08:52:30.000Z</time>
      </trkpt>
      <trkpt lat="43.48749" lon="6.17406">
        <ele>137</ele>
        <time>2025-03-31T08:52:44.000Z</time>
      </trkpt>
      <trkpt lat="43.48758" lon="6.17404">
        <ele>137</ele>
        <time>2025-03-31T08:52:56.000Z</time>
      </trkpt>
      <trkpt lat="43.48772" lon="6.174">
        <ele>136</ele>
        <time>2025-03-31T08:53:06.000Z</time>
      </trkpt>
      <trkpt lat="43.48781" lon="6.17392">
        <ele>137</ele>
        <time>2025-03-31T08:53:17.000Z</time>
      </trkpt>
      <trkpt lat="43.48788" lon="6.17383">
        <ele>136</ele>
        <time>2025-03-31T08:53:31.000Z</time>
      </trkpt>
      <trkpt lat="43.48795" lon="6.17372">
        <ele>138</ele>
        <time>2025-03-31T08:53:42.000Z</time>
      </trkpt>
      <trkpt lat="43.48801" lon="6.17363">
        <ele>138</ele>
        <time>2025-03-31T08:53:53.000Z</time>
      </trkpt>
      <trkpt lat="43.4881" lon="6.17356">
        <ele>139</ele>
        <time>2025-03-31T08:54:04.000Z</time>
      </trkpt>
      <trkpt lat="43.48816" lon="6.17346">
        <ele>137</ele>
        <time>2025-03-31T08:54:17.000Z</time>
      </trkpt>
      <trkpt lat="43.4882" lon="6.17335">
        <ele>136</ele>
        <time>2025-03-31T08:54:28.000Z</time>
      </trkpt>
      <trkpt lat="43.48827" lon="6.17328">
        <ele>136</ele>
        <time>2025-03-31T08:54:38.000Z</time>
      </trkpt>
      <trkpt lat="43.48833" lon="6.17317">
        <ele>137</ele>
        <time>2025-03-31T08:54:48.000Z</time>
      </trkpt>
      <trkpt lat="43.48841" lon="6.17309">
        <ele>137</ele>
        <time>2025-03-31T08:54:59.000Z</time>
      </trkpt>
      <trkpt lat="43.48848" lon="6.17301">
        <ele>137</ele>
        <time>2025-03-31T08:55:09.000Z</time>
      </trkpt>
      <trkpt lat="43.48855" lon="6.17292">
        <ele>137</ele>
        <time>2025-03-31T08:55:20.000Z</time>
      </trkpt>
      <trkpt lat="43.48864" lon="6.17287">
        <ele>139</ele>
        <time>2025-03-31T08:55:32.000Z</time>
      </trkpt>
      <trkpt lat="43.48871" lon="6.1728">
        <ele>139</ele>
        <time>2025-03-31T08:55:42.000Z</time>
      </trkpt>
      <trkpt lat="43.48879" lon="6.17274">
        <ele>139</ele>
        <time>2025-03-31T08:55:54.000Z</time>
      </trkpt>
      <trkpt lat="43.48883" lon="6.17262">
        <ele>139</ele>
        <time>2025-03-31T08:56:09.000Z</time>
      </trkpt>
      <trkpt lat="43.48878" lon="6.1725">
        <ele>138</ele>
        <time>2025-03-31T08:56:31.000Z</time>
      </trkpt>
      <trkpt lat="43.48878" lon="6.17236">
        <ele>137</ele>
        <time>2025-03-31T08:56:41.000Z</time>
      </trkpt>
      <trkpt lat="43.48883" lon="6.17225">
        <ele>137</ele>
        <time>2025-03-31T08:56:54.000Z</time>
      </trkpt>
      <trkpt lat="43.48883" lon="6.17212">
        <ele>137</ele>
        <time>2025-03-31T08:57:04.000Z</time>
      </trkpt>
      <trkpt lat="43.48883" lon="6.172">
        <ele>137</ele>
        <time>2025-03-31T08:57:14.000Z</time>
      </trkpt>
      <trkpt lat="43.48884" lon="6.17186">
        <ele>137</ele>
        <time>2025-03-31T08:57:24.000Z</time>
      </trkpt>
      <trkpt lat="43.48885" lon="6.17173">
        <ele>137</ele>
        <time>2025-03-31T08:57:36.000Z</time>
      </trkpt>
      <trkpt lat="43.48884" lon="6.17161">
        <ele>137</ele>
        <time>2025-03-31T08:57:48.000Z</time>
      </trkpt>
      <trkpt lat="43.48883" lon="6.17148">
        <ele>137</ele>
        <time>2025-03-31T08:57:59.000Z</time>
      </trkpt>
      <trkpt lat="43.48886" lon="6.17135">
        <ele>138</ele>
        <time>2025-03-31T08:58:09.000Z</time>
      </trkpt>
      <trkpt lat="43.48887" lon="6.17121">
        <ele>137</ele>
        <time>2025-03-31T08:58:19.000Z</time>
      </trkpt>
      <trkpt lat="43.48889" lon="6.17108">
        <ele>137</ele>
        <time>2025-03-31T08:58:29.000Z</time>
      </trkpt>
      <trkpt lat="43.48893" lon="6.17097">
        <ele>138</ele>
        <time>2025-03-31T08:58:41.000Z</time>
      </trkpt>
      <trkpt lat="43.48899" lon="6.17086">
        <ele>139</ele>
        <time>2025-03-31T08:58:51.000Z</time>
      </trkpt>
      <trkpt lat="43.48905" lon="6.17075">
        <ele>140</ele>
        <time>2025-03-31T08:59:01.000Z</time>
      </trkpt>
      <trkpt lat="43.48912" lon="6.17067">
        <ele>140</ele>
        <time>2025-03-31T08:59:12.000Z</time>
      </trkpt>
      <trkpt lat="43.4892" lon="6.1706">
        <ele>140</ele>
        <time>2025-03-31T08:59:24.000Z</time>
      </trkpt>
      <trkpt lat="43.48927" lon="6.17052">
        <ele>140</ele>
        <time>2025-03-31T08:59:36.000Z</time>
      </trkpt>
      <trkpt lat="43.48933" lon="6.17042">
        <ele>140</ele>
        <time>2025-03-31T09:00:04.000Z</time>
      </trkpt>
      <trkpt lat="43.48941" lon="6.17028">
        <ele>140</ele>
        <time>2025-03-31T09:00:14.000Z</time>
      </trkpt>
      <trkpt lat="43.48945" lon="6.17016">
        <ele>140</ele>
        <time>2025-03-31T09:00:24.000Z</time>
      </trkpt>
      <trkpt lat="43.48949" lon="6.17004">
        <ele>140</ele>
        <time>2025-03-31T09:00:34.000Z</time>
      </trkpt>
      <trkpt lat="43.4895" lon="6.16986">
        <ele>140</ele>
        <time>2025-03-31T09:00:44.000Z</time>
      </trkpt>
      <trkpt lat="43.48951" lon="6.16973">
        <ele>140</ele>
        <time>2025-03-31T09:00:56.000Z</time>
      </trkpt>
      <trkpt lat="43.48952" lon="6.16961">
        <ele>140</ele>
        <time>2025-03-31T09:01:07.000Z</time>
      </trkpt>
      <trkpt lat="43.48957" lon="6.1695">
        <ele>140</ele>
        <time>2025-03-31T09:01:18.000Z</time>
      </trkpt>
      <trkpt lat="43.48962" lon="6.16939">
        <ele>139</ele>
        <time>2025-03-31T09:01:47.000Z</time>
      </trkpt>
      <trkpt lat="43.48968" lon="6.16928">
        <ele>139</ele>
        <time>2025-03-31T09:01:58.000Z</time>
      </trkpt>
      <trkpt lat="43.48972" lon="6.16915">
        <ele>139</ele>
        <time>2025-03-31T09:02:08.000Z</time>
      </trkpt>
      <trkpt lat="43.48976" lon="6.16901">
        <ele>138</ele>
        <time>2025-03-31T09:02:18.000Z</time>
      </trkpt>
      <trkpt lat="43.4898" lon="6.16888">
        <ele>138</ele>
        <time>2025-03-31T09:02:28.000Z</time>
      </trkpt>
      <trkpt lat="43.48985" lon="6.16874">
        <ele>137</ele>
        <time>2025-03-31T09:02:39.000Z</time>
      </trkpt>
      <trkpt lat="43.48991" lon="6.16862">
        <ele>139</ele>
        <time>2025-03-31T09:02:49.000Z</time>
      </trkpt>
      <trkpt lat="43.48997" lon="6.16851">
        <ele>137</ele>
        <time>2025-03-31T09:03:00.000Z</time>
      </trkpt>
      <trkpt lat="43.49005" lon="6.16844">
        <ele>137</ele>
        <time>2025-03-31T09:03:10.000Z</time>
      </trkpt>
      <trkpt lat="43.49014" lon="6.16838">
        <ele>137</ele>
        <time>2025-03-31T09:03:21.000Z</time>
      </trkpt>
      <trkpt lat="43.49025" lon="6.16838">
        <ele>139</ele>
        <time>2025-03-31T09:03:31.000Z</time>
      </trkpt>
      <trkpt lat="43.49034" lon="6.16847">
        <ele>141</ele>
        <time>2025-03-31T09:03:41.000Z</time>
      </trkpt>
      <trkpt lat="43.49044" lon="6.16854">
        <ele>142</ele>
        <time>2025-03-31T09:03:52.000Z</time>
      </trkpt>
      <trkpt lat="43.49055" lon="6.16849">
        <ele>142</ele>
        <time>2025-03-31T09:04:02.000Z</time>
      </trkpt>
      <trkpt lat="43.49064" lon="6.16841">
        <ele>142</ele>
        <time>2025-03-31T09:04:12.000Z</time>
      </trkpt>
      <trkpt lat="43.49069" lon="6.16829">
        <ele>142</ele>
        <time>2025-03-31T09:04:24.000Z</time>
      </trkpt>
      <trkpt lat="43.49074" lon="6.16819">
        <ele>142</ele>
        <time>2025-03-31T09:04:35.000Z</time>
      </trkpt>
      <trkpt lat="43.49081" lon="6.16811">
        <ele>142</ele>
        <time>2025-03-31T09:04:46.000Z</time>
      </trkpt>
      <trkpt lat="43.49088" lon="6.16802">
        <ele>142</ele>
        <time>2025-03-31T09:04:56.000Z</time>
      </trkpt>
      <trkpt lat="43.49094" lon="6.1679">
        <ele>143</ele>
        <time>2025-03-31T09:05:07.000Z</time>
      </trkpt>
      <trkpt lat="43.491" lon="6.16781">
        <ele>142</ele>
        <time>2025-03-31T09:05:18.000Z</time>
      </trkpt>
      <trkpt lat="43.49105" lon="6.1677">
        <ele>142</ele>
        <time>2025-03-31T09:05:31.000Z</time>
      </trkpt>
      <trkpt lat="43.49111" lon="6.1676">
        <ele>142</ele>
        <time>2025-03-31T09:05:45.000Z</time>
      </trkpt>
      <trkpt lat="43.49114" lon="6.16748">
        <ele>141</ele>
        <time>2025-03-31T09:05:57.000Z</time>
      </trkpt>
      <trkpt lat="43.4912" lon="6.16739">
        <ele>143</ele>
        <time>2025-03-31T09:06:08.000Z</time>
      </trkpt>
      <trkpt lat="43.49125" lon="6.16728">
        <ele>143</ele>
        <time>2025-03-31T09:06:18.000Z</time>
      </trkpt>
      <trkpt lat="43.4913" lon="6.16715">
        <ele>141</ele>
        <time>2025-03-31T09:06:29.000Z</time>
      </trkpt>
      <trkpt lat="43.4914" lon="6.16709">
        <ele>142</ele>
        <time>2025-03-31T09:06:39.000Z</time>
      </trkpt>
      <trkpt lat="43.49151" lon="6.1671">
        <ele>143</ele>
        <time>2025-03-31T09:06:50.000Z</time>
      </trkpt>
      <trkpt lat="43.4916" lon="6.16709">
        <ele>144</ele>
        <time>2025-03-31T09:07:01.000Z</time>
      </trkpt>
      <trkpt lat="43.49168" lon="6.16704">
        <ele>145</ele>
        <time>2025-03-31T09:07:16.000Z</time>
      </trkpt>
      <trkpt lat="43.49177" lon="6.16701">
        <ele>148</ele>
        <time>2025-03-31T09:10:47.000Z</time>
      </trkpt>
      <trkpt lat="43.49186" lon="6.16697">
        <ele>149</ele>
        <time>2025-03-31T09:10:58.000Z</time>
      </trkpt>
      <trkpt lat="43.49195" lon="6.16697">
        <ele>151</ele>
        <time>2025-03-31T09:11:11.000Z</time>
      </trkpt>
      <trkpt lat="43.49205" lon="6.16696">
        <ele>152</ele>
        <time>2025-03-31T09:11:24.000Z</time>
      </trkpt>
      <trkpt lat="43.49213" lon="6.16693">
        <ele>153</ele>
        <time>2025-03-31T09:11:49.000Z</time>
      </trkpt>
      <trkpt lat="43.49222" lon="6.16691">
        <ele>155</ele>
        <time>2025-03-31T09:12:04.000Z</time>
      </trkpt>
      <trkpt lat="43.49231" lon="6.16686">
        <ele>154</ele>
        <time>2025-03-31T09:12:55.000Z</time>
      </trkpt>
      <trkpt lat="43.49241" lon="6.16687">
        <ele>155</ele>
        <time>2025-03-31T09:13:05.000Z</time>
      </trkpt>
      <trkpt lat="43.49251" lon="6.16686">
        <ele>154</ele>
        <time>2025-03-31T09:13:37.000Z</time>
      </trkpt>
      <trkpt lat="43.49263" lon="6.16683">
        <ele>153</ele>
        <time>2025-03-31T09:13:47.000Z</time>
      </trkpt>
      <trkpt lat="43.49273" lon="6.16686">
        <ele>153</ele>
        <time>2025-03-31T09:14:11.000Z</time>
      </trkpt>
      <trkpt lat="43.49282" lon="6.16687">
        <ele>152</ele>
        <time>2025-03-31T09:14:25.000Z</time>
      </trkpt>
      <trkpt lat="43.49295" lon="6.16685">
        <ele>150</ele>
        <time>2025-03-31T09:14:35.000Z</time>
      </trkpt>
      <trkpt lat="43.49307" lon="6.1669">
        <ele>152</ele>
        <time>2025-03-31T09:14:45.000Z</time>
      </trkpt>
      <trkpt lat="43.49316" lon="6.16692">
        <ele>151</ele>
        <time>2025-03-31T09:14:56.000Z</time>
      </trkpt>
      <trkpt lat="43.49318" lon="6.16704">
        <ele>153</ele>
        <time>2025-03-31T09:16:20.000Z</time>
      </trkpt>
      <trkpt lat="43.49327" lon="6.16701">
        <ele>150</ele>
        <time>2025-03-31T09:18:08.000Z</time>
      </trkpt>
      <trkpt lat="43.49336" lon="6.16709">
        <ele>152</ele>
        <time>2025-03-31T09:18:19.000Z</time>
      </trkpt>
      <trkpt lat="43.49349" lon="6.16714">
        <ele>152</ele>
        <time>2025-03-31T09:18:29.000Z</time>
      </trkpt>
      <trkpt lat="43.49357" lon="6.16719">
        <ele>152</ele>
        <time>2025-03-31T09:19:47.000Z</time>
      </trkpt>
      <trkpt lat="43.49366" lon="6.16721">
        <ele>152</ele>
        <time>2025-03-31T09:20:02.000Z</time>
      </trkpt>
      <trkpt lat="43.49375" lon="6.16723">
        <ele>151</ele>
        <time>2025-03-31T09:20:15.000Z</time>
      </trkpt>
      <trkpt lat="43.49385" lon="6.16726">
        <ele>152</ele>
        <time>2025-03-31T09:20:25.000Z</time>
      </trkpt>
      <trkpt lat="43.49394" lon="6.16728">
        <ele>152</ele>
        <time>2025-03-31T09:20:38.000Z</time>
      </trkpt>
      <trkpt lat="43.49403" lon="6.16733">
        <ele>154</ele>
        <time>2025-03-31T09:20:57.000Z</time>
      </trkpt>
      <trkpt lat="43.49411" lon="6.1674">
        <ele>154</ele>
        <time>2025-03-31T09:21:08.000Z</time>
      </trkpt>
      <trkpt lat="43.4942" lon="6.16744">
        <ele>155</ele>
        <time>2025-03-31T09:21:19.000Z</time>
      </trkpt>
      <trkpt lat="43.49427" lon="6.16751">
        <ele>155</ele>
        <time>2025-03-31T09:22:47.000Z</time>
      </trkpt>
      <trkpt lat="43.49441" lon="6.16758">
        <ele>153</ele>
        <time>2025-03-31T09:22:57.000Z</time>
      </trkpt>
      <trkpt lat="43.49453" lon="6.16763">
        <ele>152</ele>
        <time>2025-03-31T09:23:07.000Z</time>
      </trkpt>
      <trkpt lat="43.49465" lon="6.16769">
        <ele>150</ele>
        <time>2025-03-31T09:23:17.000Z</time>
      </trkpt>
      <trkpt lat="43.49472" lon="6.16779">
        <ele>150</ele>
        <time>2025-03-31T09:23:27.000Z</time>
      </trkpt>
      <trkpt lat="43.4948" lon="6.16785">
        <ele>151</ele>
        <time>2025-03-31T09:23:38.000Z</time>
      </trkpt>
      <trkpt lat="43.49489" lon="6.16792">
        <ele>152</ele>
        <time>2025-03-31T09:23:49.000Z</time>
      </trkpt>
      <trkpt lat="43.49498" lon="6.16794">
        <ele>152</ele>
        <time>2025-03-31T09:24:01.000Z</time>
      </trkpt>
      <trkpt lat="43.49508" lon="6.16797">
        <ele>152</ele>
        <time>2025-03-31T09:24:14.000Z</time>
      </trkpt>
      <trkpt lat="43.49517" lon="6.168">
        <ele>152</ele>
        <time>2025-03-31T09:24:33.000Z</time>
      </trkpt>
      <trkpt lat="43.4953" lon="6.16804">
        <ele>152</ele>
        <time>2025-03-31T09:24:44.000Z</time>
      </trkpt>
      <trkpt lat="43.49539" lon="6.1681">
        <ele>153</ele>
        <time>2025-03-31T09:24:54.000Z</time>
      </trkpt>
      <trkpt lat="43.49549" lon="6.16814">
        <ele>154</ele>
        <time>2025-03-31T09:25:04.000Z</time>
      </trkpt>
      <trkpt lat="43.49558" lon="6.16818">
        <ele>154</ele>
        <time>2025-03-31T09:25:23.000Z</time>
      </trkpt>
      <trkpt lat="43.4957" lon="6.16824">
        <ele>155</ele>
        <time>2025-03-31T09:25:33.000Z</time>
      </trkpt>
      <trkpt lat="43.4958" lon="6.16829">
        <ele>155</ele>
        <time>2025-03-31T09:25:44.000Z</time>
      </trkpt>
      <trkpt lat="43.4959" lon="6.16829">
        <ele>156</ele>
        <time>2025-03-31T09:25:54.000Z</time>
      </trkpt>
      <trkpt lat="43.49597" lon="6.16836">
        <ele>156</ele>
        <time>2025-03-31T09:28:02.000Z</time>
      </trkpt>
      <trkpt lat="43.49613" lon="6.1684">
        <ele>156</ele>
        <time>2025-03-31T09:28:13.000Z</time>
      </trkpt>
      <trkpt lat="43.49624" lon="6.16843">
        <ele>156</ele>
        <time>2025-03-31T09:28:23.000Z</time>
      </trkpt>
      <trkpt lat="43.49633" lon="6.16847">
        <ele>156</ele>
        <time>2025-03-31T09:28:37.000Z</time>
      </trkpt>
      <trkpt lat="43.49642" lon="6.16852">
        <ele>156</ele>
        <time>2025-03-31T09:29:07.000Z</time>
      </trkpt>
      <trkpt lat="43.49652" lon="6.16859">
        <ele>156</ele>
        <time>2025-03-31T09:29:18.000Z</time>
      </trkpt>
      <trkpt lat="43.49661" lon="6.16863">
        <ele>156</ele>
        <time>2025-03-31T09:29:37.000Z</time>
      </trkpt>
      <trkpt lat="43.49671" lon="6.16865">
        <ele>156</ele>
        <time>2025-03-31T09:29:48.000Z</time>
      </trkpt>
      <trkpt lat="43.4968" lon="6.16868">
        <ele>156</ele>
        <time>2025-03-31T09:30:00.000Z</time>
      </trkpt>
      <trkpt lat="43.49689" lon="6.16872">
        <ele>156</ele>
        <time>2025-03-31T09:30:11.000Z</time>
      </trkpt>
      <trkpt lat="43.49698" lon="6.16875">
        <ele>156</ele>
        <time>2025-03-31T09:30:24.000Z</time>
      </trkpt>
      <trkpt lat="43.49707" lon="6.16878">
        <ele>155</ele>
        <time>2025-03-31T09:30:43.000Z</time>
      </trkpt>
      <trkpt lat="43.49718" lon="6.16883">
        <ele>153</ele>
        <time>2025-03-31T09:30:53.000Z</time>
      </trkpt>
      <trkpt lat="43.49728" lon="6.16888">
        <ele>153</ele>
        <time>2025-03-31T09:31:03.000Z</time>
      </trkpt>
      <trkpt lat="43.49737" lon="6.16891">
        <ele>153</ele>
        <time>2025-03-31T09:31:14.000Z</time>
      </trkpt>
      <trkpt lat="43.49747" lon="6.16894">
        <ele>152</ele>
        <time>2025-03-31T09:31:24.000Z</time>
      </trkpt>
      <trkpt lat="43.49755" lon="6.16897">
        <ele>153</ele>
        <time>2025-03-31T09:31:35.000Z</time>
      </trkpt>
      <trkpt lat="43.49764" lon="6.16903">
        <ele>153</ele>
        <time>2025-03-31T09:31:45.000Z</time>
      </trkpt>
      <trkpt lat="43.49773" lon="6.16905">
        <ele>154</ele>
        <time>2025-03-31T09:31:55.000Z</time>
      </trkpt>
      <trkpt lat="43.49782" lon="6.1691">
        <ele>155</ele>
        <time>2025-03-31T09:32:29.000Z</time>
      </trkpt>
      <trkpt lat="43.4979" lon="6.16917">
        <ele>155</ele>
        <time>2025-03-31T09:32:39.000Z</time>
      </trkpt>
      <trkpt lat="43.49799" lon="6.16921">
        <ele>155</ele>
        <time>2025-03-31T09:32:52.000Z</time>
      </trkpt>
      <trkpt lat="43.49809" lon="6.16926">
        <ele>156</ele>
        <time>2025-03-31T09:33:02.000Z</time>
      </trkpt>
      <trkpt lat="43.49817" lon="6.1693">
        <ele>157</ele>
        <time>2025-03-31T09:33:13.000Z</time>
      </trkpt>
      <trkpt lat="43.49826" lon="6.16935">
        <ele>157</ele>
        <time>2025-03-31T09:33:23.000Z</time>
      </trkpt>
      <trkpt lat="43.49834" lon="6.16942">
        <ele>158</ele>
        <time>2025-03-31T09:33:35.000Z</time>
      </trkpt>
      <trkpt lat="43.49844" lon="6.1695">
        <ele>159</ele>
        <time>2025-03-31T09:33:45.000Z</time>
      </trkpt>
      <trkpt lat="43.49853" lon="6.16951">
        <ele>159</ele>
        <time>2025-03-31T09:34:13.000Z</time>
      </trkpt>
      <trkpt lat="43.49861" lon="6.16957">
        <ele>161</ele>
        <time>2025-03-31T09:34:24.000Z</time>
      </trkpt>
      <trkpt lat="43.49868" lon="6.16964">
        <ele>161</ele>
        <time>2025-03-31T09:34:34.000Z</time>
      </trkpt>
      <trkpt lat="43.49876" lon="6.16971">
        <ele>162</ele>
        <time>2025-03-31T09:34:45.000Z</time>
      </trkpt>
      <trkpt lat="43.49885" lon="6.16976">
        <ele>163</ele>
        <time>2025-03-31T09:34:58.000Z</time>
      </trkpt>
      <trkpt lat="43.49894" lon="6.1698">
        <ele>163</ele>
        <time>2025-03-31T09:35:08.000Z</time>
      </trkpt>
      <trkpt lat="43.49901" lon="6.16988">
        <ele>164</ele>
        <time>2025-03-31T09:35:19.000Z</time>
      </trkpt>
      <trkpt lat="43.49907" lon="6.16998">
        <ele>165</ele>
        <time>2025-03-31T09:35:29.000Z</time>
      </trkpt>
      <trkpt lat="43.49911" lon="6.1701">
        <ele>165</ele>
        <time>2025-03-31T09:35:41.000Z</time>
      </trkpt>
      <trkpt lat="43.49917" lon="6.17021">
        <ele>165</ele>
        <time>2025-03-31T09:35:51.000Z</time>
      </trkpt>
      <trkpt lat="43.49927" lon="6.17024">
        <ele>165</ele>
        <time>2025-03-31T09:38:43.000Z</time>
      </trkpt>
      <trkpt lat="43.49924" lon="6.17037">
        <ele>165</ele>
        <time>2025-03-31T09:41:38.000Z</time>
      </trkpt>
      <trkpt lat="43.49917" lon="6.17052">
        <ele>166</ele>
        <time>2025-03-31T09:41:48.000Z</time>
      </trkpt>
      <trkpt lat="43.49913" lon="6.17067">
        <ele>165</ele>
        <time>2025-03-31T09:41:58.000Z</time>
      </trkpt>
      <trkpt lat="43.49919" lon="6.17079">
        <ele>165</ele>
        <time>2025-03-31T09:42:08.000Z</time>
      </trkpt>
      <trkpt lat="43.49928" lon="6.17091">
        <ele>165</ele>
        <time>2025-03-31T09:42:18.000Z</time>
      </trkpt>
      <trkpt lat="43.49934" lon="6.17103">
        <ele>164</ele>
        <time>2025-03-31T09:42:28.000Z</time>
      </trkpt>
      <trkpt lat="43.49938" lon="6.17118">
        <ele>163</ele>
        <time>2025-03-31T09:42:38.000Z</time>
      </trkpt>
      <trkpt lat="43.49945" lon="6.17132">
        <ele>161</ele>
        <time>2025-03-31T09:42:49.000Z</time>
      </trkpt>
      <trkpt lat="43.49952" lon="6.17143">
        <ele>161</ele>
        <time>2025-03-31T09:42:59.000Z</time>
      </trkpt>
      <trkpt lat="43.49956" lon="6.17154">
        <ele>162</ele>
        <time>2025-03-31T09:43:09.000Z</time>
      </trkpt>
      <trkpt lat="43.4996" lon="6.17166">
        <ele>164</ele>
        <time>2025-03-31T09:43:19.000Z</time>
      </trkpt>
      <trkpt lat="43.49964" lon="6.17179">
        <ele>164</ele>
        <time>2025-03-31T09:43:29.000Z</time>
      </trkpt>
      <trkpt lat="43.49969" lon="6.1719">
        <ele>164</ele>
        <time>2025-03-31T09:43:41.000Z</time>
      </trkpt>
      <trkpt lat="43.49974" lon="6.17205">
        <ele>164</ele>
        <time>2025-03-31T09:43:51.000Z</time>
      </trkpt>
      <trkpt lat="43.4998" lon="6.17218">
        <ele>165</ele>
        <time>2025-03-31T09:44:01.000Z</time>
      </trkpt>
      <trkpt lat="43.4998" lon="6.1723">
        <ele>164</ele>
        <time>2025-03-31T09:44:35.000Z</time>
      </trkpt>
      <trkpt lat="43.49973" lon="6.17238">
        <ele>164</ele>
        <time>2025-03-31T09:44:46.000Z</time>
      </trkpt>
      <trkpt lat="43.49973" lon="6.17251">
        <ele>164</ele>
        <time>2025-03-31T09:45:20.000Z</time>
      </trkpt>
      <trkpt lat="43.49977" lon="6.17264">
        <ele>163</ele>
        <time>2025-03-31T09:45:30.000Z</time>
      </trkpt>
      <trkpt lat="43.49981" lon="6.17276">
        <ele>163</ele>
        <time>2025-03-31T09:45:40.000Z</time>
      </trkpt>
      <trkpt lat="43.49986" lon="6.17289">
        <ele>163</ele>
        <time>2025-03-31T09:45:51.000Z</time>
      </trkpt>
      <trkpt lat="43.49989" lon="6.17301">
        <ele>164</ele>
        <time>2025-03-31T09:46:02.000Z</time>
      </trkpt>
      <trkpt lat="43.49992" lon="6.17313">
        <ele>163</ele>
        <time>2025-03-31T09:46:12.000Z</time>
      </trkpt>
      <trkpt lat="43.49996" lon="6.17324">
        <ele>164</ele>
        <time>2025-03-31T09:46:44.000Z</time>
      </trkpt>
      <trkpt lat="43.49998" lon="6.17337">
        <ele>163</ele>
        <time>2025-03-31T09:47:11.000Z</time>
      </trkpt>
      <trkpt lat="43.50003" lon="6.1735">
        <ele>164</ele>
        <time>2025-03-31T09:47:21.000Z</time>
      </trkpt>
      <trkpt lat="43.50008" lon="6.17361">
        <ele>164</ele>
        <time>2025-03-31T09:47:32.000Z</time>
      </trkpt>
      <trkpt lat="43.50011" lon="6.17373">
        <ele>164</ele>
        <time>2025-03-31T09:47:43.000Z</time>
      </trkpt>
      <trkpt lat="43.50001" lon="6.17379">
        <ele>164</ele>
        <time>2025-03-31T09:47:53.000Z</time>
      </trkpt>
      <trkpt lat="43.49993" lon="6.17387">
        <ele>162</ele>
        <time>2025-03-31T09:48:04.000Z</time>
      </trkpt>
      <trkpt lat="43.49987" lon="6.17396">
        <ele>161</ele>
        <time>2025-03-31T09:48:15.000Z</time>
      </trkpt>
      <trkpt lat="43.49981" lon="6.17406">
        <ele>160</ele>
        <time>2025-03-31T09:48:34.000Z</time>
      </trkpt>
      <trkpt lat="43.49973" lon="6.17417">
        <ele>160</ele>
        <time>2025-03-31T09:48:44.000Z</time>
      </trkpt>
      <trkpt lat="43.49966" lon="6.17428">
        <ele>159</ele>
        <time>2025-03-31T09:48:55.000Z</time>
      </trkpt>
      <trkpt lat="43.4996" lon="6.17437">
        <ele>159</ele>
        <time>2025-03-31T09:49:06.000Z</time>
      </trkpt>
      <trkpt lat="43.49953" lon="6.17446">
        <ele>158</ele>
        <time>2025-03-31T09:49:16.000Z</time>
      </trkpt>
      <trkpt lat="43.49945" lon="6.17457">
        <ele>158</ele>
        <time>2025-03-31T09:49:26.000Z</time>
      </trkpt>
      <trkpt lat="43.49939" lon="6.17466">
        <ele>158</ele>
        <time>2025-03-31T09:49:37.000Z</time>
      </trkpt>
      <trkpt lat="43.49933" lon="6.17477">
        <ele>157</ele>
        <time>2025-03-31T09:49:50.000Z</time>
      </trkpt>
      <trkpt lat="43.49926" lon="6.17485">
        <ele>157</ele>
        <time>2025-03-31T09:50:01.000Z</time>
      </trkpt>
      <trkpt lat="43.49915" lon="6.1749">
        <ele>157</ele>
        <time>2025-03-31T09:50:12.000Z</time>
      </trkpt>
      <trkpt lat="43.49907" lon="6.17497">
        <ele>157</ele>
        <time>2025-03-31T09:50:23.000Z</time>
      </trkpt>
      <trkpt lat="43.49899" lon="6.17507">
        <ele>156</ele>
        <time>2025-03-31T09:50:33.000Z</time>
      </trkpt>
      <trkpt lat="43.49892" lon="6.17517">
        <ele>155</ele>
        <time>2025-03-31T09:50:44.000Z</time>
      </trkpt>
      <trkpt lat="43.49886" lon="6.17528">
        <ele>155</ele>
        <time>2025-03-31T09:50:54.000Z</time>
      </trkpt>
      <trkpt lat="43.49877" lon="6.17535">
        <ele>155</ele>
        <time>2025-03-31T09:51:04.000Z</time>
      </trkpt>
      <trkpt lat="43.49868" lon="6.17541">
        <ele>154</ele>
        <time>2025-03-31T09:51:14.000Z</time>
      </trkpt>
      <trkpt lat="43.49859" lon="6.17545">
        <ele>154</ele>
        <time>2025-03-31T09:51:25.000Z</time>
      </trkpt>
      <trkpt lat="43.49848" lon="6.17547">
        <ele>154</ele>
        <time>2025-03-31T09:51:36.000Z</time>
      </trkpt>
      <trkpt lat="43.49838" lon="6.17545">
        <ele>154</ele>
        <time>2025-03-31T09:51:46.000Z</time>
      </trkpt>
      <trkpt lat="43.49829" lon="6.17543">
        <ele>154</ele>
        <time>2025-03-31T09:52:00.000Z</time>
      </trkpt>
      <trkpt lat="43.49819" lon="6.17542">
        <ele>154</ele>
        <time>2025-03-31T09:52:11.000Z</time>
      </trkpt>
      <trkpt lat="43.4981" lon="6.17547">
        <ele>154</ele>
        <time>2025-03-31T09:52:21.000Z</time>
      </trkpt>
      <trkpt lat="43.49802" lon="6.17541">
        <ele>153</ele>
        <time>2025-03-31T09:53:09.000Z</time>
      </trkpt>
      <trkpt lat="43.49811" lon="6.17541">
        <ele>154</ele>
        <time>2025-03-31T10:25:43.000Z</time>
      </trkpt>
      <trkpt lat="43.49802" lon="6.17539">
        <ele>153</ele>
        <time>2025-03-31T10:26:20.000Z</time>
      </trkpt>
      <trkpt lat="43.49801" lon="6.17552">
        <ele>153</ele>
        <time>2025-03-31T10:34:15.000Z</time>
      </trkpt>
      <trkpt lat="43.49807" lon="6.17542">
        <ele>154</ele>
        <time>2025-03-31T10:47:03.000Z</time>
      </trkpt>
      <trkpt lat="43.49807" lon="6.17555">
        <ele>154</ele>
        <time>2025-03-31T10:47:14.000Z</time>
      </trkpt>
      <trkpt lat="43.49804" lon="6.17567">
        <ele>153</ele>
        <time>2025-03-31T10:49:59.000Z</time>
      </trkpt>
      <trkpt lat="43.49799" lon="6.17578">
        <ele>153</ele>
        <time>2025-03-31T10:50:39.000Z</time>
      </trkpt>
      <trkpt lat="43.4979" lon="6.1759">
        <ele>153</ele>
        <time>2025-03-31T10:50:49.000Z</time>
      </trkpt>
      <trkpt lat="43.49784" lon="6.17601">
        <ele>154</ele>
        <time>2025-03-31T10:50:59.000Z</time>
      </trkpt>
      <trkpt lat="43.49777" lon="6.1761">
        <ele>156</ele>
        <time>2025-03-31T10:52:31.000Z</time>
      </trkpt>
      <trkpt lat="43.49771" lon="6.1762">
        <ele>160</ele>
        <time>2025-03-31T10:52:55.000Z</time>
      </trkpt>
      <trkpt lat="43.49764" lon="6.17634">
        <ele>162</ele>
        <time>2025-03-31T10:53:06.000Z</time>
      </trkpt>
      <trkpt lat="43.49756" lon="6.17639">
        <ele>163</ele>
        <time>2025-03-31T10:53:22.000Z</time>
      </trkpt>
      <trkpt lat="43.49745" lon="6.1764">
        <ele>165</ele>
        <time>2025-03-31T10:53:32.000Z</time>
      </trkpt>
      <trkpt lat="43.49736" lon="6.17643">
        <ele>166</ele>
        <time>2025-03-31T10:53:42.000Z</time>
      </trkpt>
      <trkpt lat="43.49726" lon="6.17643">
        <ele>167</ele>
        <time>2025-03-31T10:53:52.000Z</time>
      </trkpt>
      <trkpt lat="43.49717" lon="6.1764">
        <ele>168</ele>
        <time>2025-03-31T10:54:32.000Z</time>
      </trkpt>
      <trkpt lat="43.49708" lon="6.1764">
        <ele>169</ele>
        <time>2025-03-31T10:55:09.000Z</time>
      </trkpt>
      <trkpt lat="43.49698" lon="6.17642">
        <ele>167</ele>
        <time>2025-03-31T10:55:19.000Z</time>
      </trkpt>
      <trkpt lat="43.49689" lon="6.17644">
        <ele>167</ele>
        <time>2025-03-31T10:55:30.000Z</time>
      </trkpt>
      <trkpt lat="43.4968" lon="6.17646">
        <ele>167</ele>
        <time>2025-03-31T10:55:45.000Z</time>
      </trkpt>
      <trkpt lat="43.49671" lon="6.17647">
        <ele>167</ele>
        <time>2025-03-31T10:56:03.000Z</time>
      </trkpt>
      <trkpt lat="43.49662" lon="6.17651">
        <ele>168</ele>
        <time>2025-03-31T10:56:13.000Z</time>
      </trkpt>
      <trkpt lat="43.49652" lon="6.17654">
        <ele>169</ele>
        <time>2025-03-31T10:56:24.000Z</time>
      </trkpt>
      <trkpt lat="43.49642" lon="6.17655">
        <ele>168</ele>
        <time>2025-03-31T10:56:34.000Z</time>
      </trkpt>
      <trkpt lat="43.49633" lon="6.17659">
        <ele>168</ele>
        <time>2025-03-31T10:56:45.000Z</time>
      </trkpt>
      <trkpt lat="43.49624" lon="6.17662">
        <ele>167</ele>
        <time>2025-03-31T10:56:57.000Z</time>
      </trkpt>
      <trkpt lat="43.49615" lon="6.17661">
        <ele>168</ele>
        <time>2025-03-31T10:57:21.000Z</time>
      </trkpt>
      <trkpt lat="43.49606" lon="6.17663">
        <ele>168</ele>
        <time>2025-03-31T10:57:34.000Z</time>
      </trkpt>
      <trkpt lat="43.49597" lon="6.17665">
        <ele>168</ele>
        <time>2025-03-31T10:57:44.000Z</time>
      </trkpt>
      <trkpt lat="43.49589" lon="6.17672">
        <ele>168</ele>
        <time>2025-03-31T10:57:55.000Z</time>
      </trkpt>
      <trkpt lat="43.49582" lon="6.17681">
        <ele>168</ele>
        <time>2025-03-31T10:58:06.000Z</time>
      </trkpt>
      <trkpt lat="43.49572" lon="6.17686">
        <ele>169</ele>
        <time>2025-03-31T10:58:16.000Z</time>
      </trkpt>
      <trkpt lat="43.49562" lon="6.17686">
        <ele>168</ele>
        <time>2025-03-31T10:58:26.000Z</time>
      </trkpt>
      <trkpt lat="43.49553" lon="6.17686">
        <ele>168</ele>
        <time>2025-03-31T10:58:41.000Z</time>
      </trkpt>
      <trkpt lat="43.49544" lon="6.17687">
        <ele>168</ele>
        <time>2025-03-31T10:58:54.000Z</time>
      </trkpt>
      <trkpt lat="43.49536" lon="6.17692">
        <ele>168</ele>
        <time>2025-03-31T10:59:05.000Z</time>
      </trkpt>
      <trkpt lat="43.49527" lon="6.17698">
        <ele>168</ele>
        <time>2025-03-31T10:59:22.000Z</time>
      </trkpt>
      <trkpt lat="43.49519" lon="6.17704">
        <ele>169</ele>
        <time>2025-03-31T10:59:39.000Z</time>
      </trkpt>
      <trkpt lat="43.49511" lon="6.17709">
        <ele>169</ele>
        <time>2025-03-31T10:59:50.000Z</time>
      </trkpt>
      <trkpt lat="43.49503" lon="6.17718">
        <ele>169</ele>
        <time>2025-03-31T11:00:00.000Z</time>
      </trkpt>
      <trkpt lat="43.49495" lon="6.17728">
        <ele>169</ele>
        <time>2025-03-31T11:00:11.000Z</time>
      </trkpt>
      <trkpt lat="43.49488" lon="6.17737">
        <ele>169</ele>
        <time>2025-03-31T11:00:21.000Z</time>
      </trkpt>
      <trkpt lat="43.49481" lon="6.17746">
        <ele>170</ele>
        <time>2025-03-31T11:00:32.000Z</time>
      </trkpt>
      <trkpt lat="43.49476" lon="6.17757">
        <ele>171</ele>
        <time>2025-03-31T11:00:42.000Z</time>
      </trkpt>
      <trkpt lat="43.49471" lon="6.17768">
        <ele>172</ele>
        <time>2025-03-31T11:00:53.000Z</time>
      </trkpt>
      <trkpt lat="43.49466" lon="6.17779">
        <ele>172</ele>
        <time>2025-03-31T11:01:04.000Z</time>
      </trkpt>
      <trkpt lat="43.49458" lon="6.17788">
        <ele>173</ele>
        <time>2025-03-31T11:01:15.000Z</time>
      </trkpt>
      <trkpt lat="43.49451" lon="6.178">
        <ele>173</ele>
        <time>2025-03-31T11:01:25.000Z</time>
      </trkpt>
      <trkpt lat="43.49446" lon="6.1781">
        <ele>173</ele>
        <time>2025-03-31T11:01:35.000Z</time>
      </trkpt>
      <trkpt lat="43.4944" lon="6.1782">
        <ele>173</ele>
        <time>2025-03-31T11:01:45.000Z</time>
      </trkpt>
      <trkpt lat="43.49432" lon="6.17827">
        <ele>174</ele>
        <time>2025-03-31T11:01:58.000Z</time>
      </trkpt>
      <trkpt lat="43.49424" lon="6.17833">
        <ele>174</ele>
        <time>2025-03-31T11:02:20.000Z</time>
      </trkpt>
      <trkpt lat="43.49419" lon="6.17844">
        <ele>174</ele>
        <time>2025-03-31T11:02:38.000Z</time>
      </trkpt>
      <trkpt lat="43.49414" lon="6.17855">
        <ele>174</ele>
        <time>2025-03-31T11:02:55.000Z</time>
      </trkpt>
      <trkpt lat="43.49407" lon="6.17865">
        <ele>176</ele>
        <time>2025-03-31T11:03:06.000Z</time>
      </trkpt>
      <trkpt lat="43.49401" lon="6.17875">
        <ele>176</ele>
        <time>2025-03-31T11:03:16.000Z</time>
      </trkpt>
      <trkpt lat="43.49394" lon="6.17886">
        <ele>176</ele>
        <time>2025-03-31T11:03:27.000Z</time>
      </trkpt>
      <trkpt lat="43.49387" lon="6.17897">
        <ele>176</ele>
        <time>2025-03-31T11:03:37.000Z</time>
      </trkpt>
      <trkpt lat="43.49381" lon="6.17908">
        <ele>176</ele>
        <time>2025-03-31T11:03:47.000Z</time>
      </trkpt>
      <trkpt lat="43.49376" lon="6.17922">
        <ele>175</ele>
        <time>2025-03-31T11:03:57.000Z</time>
      </trkpt>
      <trkpt lat="43.49372" lon="6.17934">
        <ele>175</ele>
        <time>2025-03-31T11:04:12.000Z</time>
      </trkpt>
      <trkpt lat="43.49365" lon="6.17941">
        <ele>175</ele>
        <time>2025-03-31T11:04:24.000Z</time>
      </trkpt>
      <trkpt lat="43.49357" lon="6.1795">
        <ele>174</ele>
        <time>2025-03-31T11:04:35.000Z</time>
      </trkpt>
      <trkpt lat="43.49348" lon="6.17954">
        <ele>175</ele>
        <time>2025-03-31T11:04:45.000Z</time>
      </trkpt>
      <trkpt lat="43.49338" lon="6.17955">
        <ele>175</ele>
        <time>2025-03-31T11:04:55.000Z</time>
      </trkpt>
      <trkpt lat="43.49329" lon="6.17958">
        <ele>175</ele>
        <time>2025-03-31T11:05:37.000Z</time>
      </trkpt>
      <trkpt lat="43.49326" lon="6.17971">
        <ele>174</ele>
        <time>2025-03-31T11:06:49.000Z</time>
      </trkpt>
      <trkpt lat="43.49324" lon="6.17987">
        <ele>174</ele>
        <time>2025-03-31T11:07:00.000Z</time>
      </trkpt>
      <trkpt lat="43.49325" lon="6.18">
        <ele>173</ele>
        <time>2025-03-31T11:07:14.000Z</time>
      </trkpt>
      <trkpt lat="43.49324" lon="6.18013">
        <ele>174</ele>
        <time>2025-03-31T11:07:25.000Z</time>
      </trkpt>
      <trkpt lat="43.4932" lon="6.18025">
        <ele>176</ele>
        <time>2025-03-31T11:07:37.000Z</time>
      </trkpt>
      <trkpt lat="43.4932" lon="6.18037">
        <ele>176</ele>
        <time>2025-03-31T11:07:48.000Z</time>
      </trkpt>
      <trkpt lat="43.49315" lon="6.18052">
        <ele>176</ele>
        <time>2025-03-31T11:07:58.000Z</time>
      </trkpt>
      <trkpt lat="43.4931" lon="6.18067">
        <ele>176</ele>
        <time>2025-03-31T11:08:08.000Z</time>
      </trkpt>
      <trkpt lat="43.49306" lon="6.18081">
        <ele>176</ele>
        <time>2025-03-31T11:08:19.000Z</time>
      </trkpt>
      <trkpt lat="43.49304" lon="6.18094">
        <ele>176</ele>
        <time>2025-03-31T11:08:29.000Z</time>
      </trkpt>
      <trkpt lat="43.49299" lon="6.18105">
        <ele>177</ele>
        <time>2025-03-31T11:08:39.000Z</time>
      </trkpt>
      <trkpt lat="43.49298" lon="6.18117">
        <ele>177</ele>
        <time>2025-03-31T11:08:51.000Z</time>
      </trkpt>
      <trkpt lat="43.49296" lon="6.1813">
        <ele>178</ele>
        <time>2025-03-31T11:09:01.000Z</time>
      </trkpt>
      <trkpt lat="43.49291" lon="6.18141">
        <ele>178</ele>
        <time>2025-03-31T11:09:11.000Z</time>
      </trkpt>
      <trkpt lat="43.49286" lon="6.18151">
        <ele>179</ele>
        <time>2025-03-31T11:09:21.000Z</time>
      </trkpt>
      <trkpt lat="43.49281" lon="6.18163">
        <ele>179</ele>
        <time>2025-03-31T11:09:34.000Z</time>
      </trkpt>
      <trkpt lat="43.49275" lon="6.18176">
        <ele>179</ele>
        <time>2025-03-31T11:09:45.000Z</time>
      </trkpt>
      <trkpt lat="43.49267" lon="6.18188">
        <ele>181</ele>
        <time>2025-03-31T11:09:55.000Z</time>
      </trkpt>
      <trkpt lat="43.49262" lon="6.18198">
        <ele>181</ele>
        <time>2025-03-31T11:10:06.000Z</time>
      </trkpt>
      <trkpt lat="43.49255" lon="6.18209">
        <ele>181</ele>
        <time>2025-03-31T11:10:16.000Z</time>
      </trkpt>
      <trkpt lat="43.49251" lon="6.1822">
        <ele>182</ele>
        <time>2025-03-31T11:10:33.000Z</time>
      </trkpt>
      <trkpt lat="43.49243" lon="6.18227">
        <ele>183</ele>
        <time>2025-03-31T11:10:43.000Z</time>
      </trkpt>
      <trkpt lat="43.49233" lon="6.18233">
        <ele>183</ele>
        <time>2025-03-31T11:10:53.000Z</time>
      </trkpt>
      <trkpt lat="43.49222" lon="6.18233">
        <ele>183</ele>
        <time>2025-03-31T11:11:03.000Z</time>
      </trkpt>
      <trkpt lat="43.49213" lon="6.18227">
        <ele>182</ele>
        <time>2025-03-31T11:11:13.000Z</time>
      </trkpt>
      <trkpt lat="43.49202" lon="6.18219">
        <ele>183</ele>
        <time>2025-03-31T11:11:24.000Z</time>
      </trkpt>
      <trkpt lat="43.49192" lon="6.18213">
        <ele>183</ele>
        <time>2025-03-31T11:11:34.000Z</time>
      </trkpt>
      <trkpt lat="43.49183" lon="6.18207">
        <ele>184</ele>
        <time>2025-03-31T11:11:44.000Z</time>
      </trkpt>
      <trkpt lat="43.49175" lon="6.18198">
        <ele>184</ele>
        <time>2025-03-31T11:11:54.000Z</time>
      </trkpt>
      <trkpt lat="43.49168" lon="6.1819">
        <ele>185</ele>
        <time>2025-03-31T11:12:05.000Z</time>
      </trkpt>
      <trkpt lat="43.49161" lon="6.1818">
        <ele>185</ele>
        <time>2025-03-31T11:12:15.000Z</time>
      </trkpt>
      <trkpt lat="43.49154" lon="6.18189">
        <ele>186</ele>
        <time>2025-03-31T11:12:30.000Z</time>
      </trkpt>
      <trkpt lat="43.49151" lon="6.18202">
        <ele>187</ele>
        <time>2025-03-31T11:12:40.000Z</time>
      </trkpt>
      <trkpt lat="43.49147" lon="6.18214">
        <ele>187</ele>
        <time>2025-03-31T11:12:50.000Z</time>
      </trkpt>
      <trkpt lat="43.49141" lon="6.18225">
        <ele>187</ele>
        <time>2025-03-31T11:13:00.000Z</time>
      </trkpt>
      <trkpt lat="43.49137" lon="6.18238">
        <ele>188</ele>
        <time>2025-03-31T11:13:10.000Z</time>
      </trkpt>
      <trkpt lat="43.49133" lon="6.18251">
        <ele>189</ele>
        <time>2025-03-31T11:13:21.000Z</time>
      </trkpt>
      <trkpt lat="43.49127" lon="6.18262">
        <ele>189</ele>
        <time>2025-03-31T11:13:31.000Z</time>
      </trkpt>
      <trkpt lat="43.49121" lon="6.18272">
        <ele>189</ele>
        <time>2025-03-31T11:13:42.000Z</time>
      </trkpt>
      <trkpt lat="43.49114" lon="6.18281">
        <ele>191</ele>
        <time>2025-03-31T11:13:52.000Z</time>
      </trkpt>
      <trkpt lat="43.49108" lon="6.1829">
        <ele>192</ele>
        <time>2025-03-31T11:14:02.000Z</time>
      </trkpt>
      <trkpt lat="43.49101" lon="6.18297">
        <ele>192</ele>
        <time>2025-03-31T11:14:15.000Z</time>
      </trkpt>
      <trkpt lat="43.49092" lon="6.18307">
        <ele>192</ele>
        <time>2025-03-31T11:14:25.000Z</time>
      </trkpt>
      <trkpt lat="43.49083" lon="6.18315">
        <ele>193</ele>
        <time>2025-03-31T11:14:36.000Z</time>
      </trkpt>
      <trkpt lat="43.49075" lon="6.18323">
        <ele>193</ele>
        <time>2025-03-31T11:14:46.000Z</time>
      </trkpt>
      <trkpt lat="43.49067" lon="6.18336">
        <ele>192</ele>
        <time>2025-03-31T11:14:56.000Z</time>
      </trkpt>
      <trkpt lat="43.49058" lon="6.18348">
        <ele>193</ele>
        <time>2025-03-31T11:15:07.000Z</time>
      </trkpt>
      <trkpt lat="43.49048" lon="6.18354">
        <ele>194</ele>
        <time>2025-03-31T11:15:17.000Z</time>
      </trkpt>
      <trkpt lat="43.49041" lon="6.18361">
        <ele>195</ele>
        <time>2025-03-31T11:15:29.000Z</time>
      </trkpt>
      <trkpt lat="43.49033" lon="6.1837">
        <ele>195</ele>
        <time>2025-03-31T11:15:39.000Z</time>
      </trkpt>
      <trkpt lat="43.49027" lon="6.18382">
        <ele>195</ele>
        <time>2025-03-31T11:15:56.000Z</time>
      </trkpt>
      <trkpt lat="43.49017" lon="6.18391">
        <ele>195</ele>
        <time>2025-03-31T11:16:08.000Z</time>
      </trkpt>
      <trkpt lat="43.49008" lon="6.18382">
        <ele>195</ele>
        <time>2025-03-31T11:16:18.000Z</time>
      </trkpt>
      <trkpt lat="43.49007" lon="6.18394">
        <ele>195</ele>
        <time>2025-03-31T11:16:58.000Z</time>
      </trkpt>
      <trkpt lat="43.49013" lon="6.18404">
        <ele>195</ele>
        <time>2025-03-31T11:17:20.000Z</time>
      </trkpt>
      <trkpt lat="43.49016" lon="6.18419">
        <ele>195</ele>
        <time>2025-03-31T11:17:30.000Z</time>
      </trkpt>
      <trkpt lat="43.49013" lon="6.18431">
        <ele>196</ele>
        <time>2025-03-31T11:17:50.000Z</time>
      </trkpt>
      <trkpt lat="43.49017" lon="6.18443">
        <ele>196</ele>
        <time>2025-03-31T11:18:07.000Z</time>
      </trkpt>
      <trkpt lat="43.4902" lon="6.18456">
        <ele>196</ele>
        <time>2025-03-31T11:18:18.000Z</time>
      </trkpt>
      <trkpt lat="43.49022" lon="6.18468">
        <ele>197</ele>
        <time>2025-03-31T11:18:31.000Z</time>
      </trkpt>
      <trkpt lat="43.49025" lon="6.18481">
        <ele>198</ele>
        <time>2025-03-31T11:18:45.000Z</time>
      </trkpt>
      <trkpt lat="43.49029" lon="6.18493">
        <ele>199</ele>
        <time>2025-03-31T11:18:56.000Z</time>
      </trkpt>
      <trkpt lat="43.49035" lon="6.18503">
        <ele>199</ele>
        <time>2025-03-31T11:19:08.000Z</time>
      </trkpt>
      <trkpt lat="43.49041" lon="6.18513">
        <ele>200</ele>
        <time>2025-03-31T11:19:23.000Z</time>
      </trkpt>
      <trkpt lat="43.49049" lon="6.1852">
        <ele>200</ele>
        <time>2025-03-31T11:19:33.000Z</time>
      </trkpt>
      <trkpt lat="43.49057" lon="6.18524">
        <ele>200</ele>
        <time>2025-03-31T11:19:44.000Z</time>
      </trkpt>
      <trkpt lat="43.49065" lon="6.18532">
        <ele>200</ele>
        <time>2025-03-31T11:19:57.000Z</time>
      </trkpt>
      <trkpt lat="43.49069" lon="6.18543">
        <ele>200</ele>
        <time>2025-03-31T11:20:07.000Z</time>
      </trkpt>
      <trkpt lat="43.49074" lon="6.18554">
        <ele>200</ele>
        <time>2025-03-31T11:20:18.000Z</time>
      </trkpt>
      <trkpt lat="43.49079" lon="6.18565">
        <ele>200</ele>
        <time>2025-03-31T11:20:31.000Z</time>
      </trkpt>
      <trkpt lat="43.49083" lon="6.18578">
        <ele>201</ele>
        <time>2025-03-31T11:20:41.000Z</time>
      </trkpt>
      <trkpt lat="43.49091" lon="6.18589">
        <ele>200</ele>
        <time>2025-03-31T11:20:51.000Z</time>
      </trkpt>
      <trkpt lat="43.49095" lon="6.186">
        <ele>201</ele>
        <time>2025-03-31T11:21:03.000Z</time>
      </trkpt>
      <trkpt lat="43.49099" lon="6.18612">
        <ele>201</ele>
        <time>2025-03-31T11:21:16.000Z</time>
      </trkpt>
      <trkpt lat="43.49104" lon="6.18624">
        <ele>201</ele>
        <time>2025-03-31T11:21:38.000Z</time>
      </trkpt>
      <trkpt lat="43.49116" lon="6.18645">
        <ele>201</ele>
        <time>2025-03-31T11:21:49.000Z</time>
      </trkpt>
      <trkpt lat="43.49122" lon="6.18658">
        <ele>201</ele>
        <time>2025-03-31T11:21:59.000Z</time>
      </trkpt>
      <trkpt lat="43.49128" lon="6.18673">
        <ele>200</ele>
        <time>2025-03-31T11:22:09.000Z</time>
      </trkpt>
      <trkpt lat="43.49129" lon="6.18689">
        <ele>200</ele>
        <time>2025-03-31T11:22:20.000Z</time>
      </trkpt>
      <trkpt lat="43.49132" lon="6.18702">
        <ele>200</ele>
        <time>2025-03-31T11:22:30.000Z</time>
      </trkpt>
      <trkpt lat="43.49136" lon="6.18716">
        <ele>200</ele>
        <time>2025-03-31T11:22:40.000Z</time>
      </trkpt>
      <trkpt lat="43.49135" lon="6.1873">
        <ele>200</ele>
        <time>2025-03-31T11:23:45.000Z</time>
      </trkpt>
      <trkpt lat="43.49136" lon="6.18743">
        <ele>200</ele>
        <time>2025-03-31T11:24:00.000Z</time>
      </trkpt>
      <trkpt lat="43.4914" lon="6.18758">
        <ele>200</ele>
        <time>2025-03-31T11:24:10.000Z</time>
      </trkpt>
      <trkpt lat="43.49143" lon="6.1877">
        <ele>199</ele>
        <time>2025-03-31T11:24:20.000Z</time>
      </trkpt>
      <trkpt lat="43.49142" lon="6.18783">
        <ele>199</ele>
        <time>2025-03-31T11:25:50.000Z</time>
      </trkpt>
      <trkpt lat="43.49138" lon="6.18794">
        <ele>198</ele>
        <time>2025-03-31T11:26:09.000Z</time>
      </trkpt>
      <trkpt lat="43.49135" lon="6.18811">
        <ele>197</ele>
        <time>2025-03-31T11:26:20.000Z</time>
      </trkpt>
      <trkpt lat="43.4913" lon="6.18822">
        <ele>197</ele>
        <time>2025-03-31T11:27:30.000Z</time>
      </trkpt>
      <trkpt lat="43.49126" lon="6.18833">
        <ele>197</ele>
        <time>2025-03-31T11:27:43.000Z</time>
      </trkpt>
      <trkpt lat="43.4912" lon="6.18843">
        <ele>198</ele>
        <time>2025-03-31T11:27:55.000Z</time>
      </trkpt>
      <trkpt lat="43.49115" lon="6.18853">
        <ele>198</ele>
        <time>2025-03-31T11:28:05.000Z</time>
      </trkpt>
      <trkpt lat="43.4911" lon="6.18864">
        <ele>199</ele>
        <time>2025-03-31T11:28:24.000Z</time>
      </trkpt>
      <trkpt lat="43.49102" lon="6.18871">
        <ele>199</ele>
        <time>2025-03-31T11:28:36.000Z</time>
      </trkpt>
      <trkpt lat="43.49093" lon="6.18881">
        <ele>199</ele>
        <time>2025-03-31T11:28:46.000Z</time>
      </trkpt>
      <trkpt lat="43.49088" lon="6.18893">
        <ele>200</ele>
        <time>2025-03-31T11:29:05.000Z</time>
      </trkpt>
      <trkpt lat="43.49079" lon="6.18898">
        <ele>201</ele>
        <time>2025-03-31T11:30:28.000Z</time>
      </trkpt>
      <trkpt lat="43.49067" lon="6.18909">
        <ele>203</ele>
        <time>2025-03-31T11:30:38.000Z</time>
      </trkpt>
      <trkpt lat="43.49057" lon="6.18912">
        <ele>204</ele>
        <time>2025-03-31T11:30:48.000Z</time>
      </trkpt>
      <trkpt lat="43.49048" lon="6.18906">
        <ele>205</ele>
        <time>2025-03-31T11:31:06.000Z</time>
      </trkpt>
      <trkpt lat="43.49047" lon="6.18893">
        <ele>205</ele>
        <time>2025-03-31T11:31:19.000Z</time>
      </trkpt>
      <trkpt lat="43.49051" lon="6.18879">
        <ele>206</ele>
        <time>2025-03-31T11:31:29.000Z</time>
      </trkpt>
      <trkpt lat="43.49047" lon="6.18867">
        <ele>206</ele>
        <time>2025-03-31T11:31:50.000Z</time>
      </trkpt>
      <trkpt lat="43.49039" lon="6.18859">
        <ele>208</ele>
        <time>2025-03-31T11:32:00.000Z</time>
      </trkpt>
      <trkpt lat="43.49036" lon="6.18847">
        <ele>208</ele>
        <time>2025-03-31T11:32:18.000Z</time>
      </trkpt>
      <trkpt lat="43.49036" lon="6.18833">
        <ele>209</ele>
        <time>2025-03-31T11:32:28.000Z</time>
      </trkpt>
      <trkpt lat="43.49034" lon="6.18821">
        <ele>209</ele>
        <time>2025-03-31T11:32:45.000Z</time>
      </trkpt>
      <trkpt lat="43.49029" lon="6.1881">
        <ele>210</ele>
        <time>2025-03-31T11:33:05.000Z</time>
      </trkpt>
      <trkpt lat="43.49025" lon="6.18797">
        <ele>210</ele>
        <time>2025-03-31T11:33:15.000Z</time>
      </trkpt>
      <trkpt lat="43.49019" lon="6.18785">
        <ele>211</ele>
        <time>2025-03-31T11:33:26.000Z</time>
      </trkpt>
      <trkpt lat="43.49014" lon="6.18773">
        <ele>211</ele>
        <time>2025-03-31T11:33:36.000Z</time>
      </trkpt>
      <trkpt lat="43.49008" lon="6.18763">
        <ele>211</ele>
        <time>2025-03-31T11:33:46.000Z</time>
      </trkpt>
      <trkpt lat="43.4901" lon="6.18751">
        <ele>211</ele>
        <time>2025-03-31T11:33:58.000Z</time>
      </trkpt>
      <trkpt lat="43.49013" lon="6.18738">
        <ele>211</ele>
        <time>2025-03-31T11:34:13.000Z</time>
      </trkpt>
      <trkpt lat="43.4901" lon="6.18724">
        <ele>211</ele>
        <time>2025-03-31T11:34:24.000Z</time>
      </trkpt>
      <trkpt lat="43.49008" lon="6.18711">
        <ele>211</ele>
        <time>2025-03-31T11:34:40.000Z</time>
      </trkpt>
      <trkpt lat="43.49004" lon="6.187">
        <ele>210</ele>
        <time>2025-03-31T11:35:08.000Z</time>
      </trkpt>
      <trkpt lat="43.49002" lon="6.18688">
        <ele>210</ele>
        <time>2025-03-31T11:35:33.000Z</time>
      </trkpt>
      <trkpt lat="43.49" lon="6.18672">
        <ele>209</ele>
        <time>2025-03-31T11:35:43.000Z</time>
      </trkpt>
      <trkpt lat="43.49" lon="6.18659">
        <ele>209</ele>
        <time>2025-03-31T11:36:05.000Z</time>
      </trkpt>
      <trkpt lat="43.49005" lon="6.18647">
        <ele>208</ele>
        <time>2025-03-31T11:47:32.000Z</time>
      </trkpt>
      <trkpt lat="43.49009" lon="6.18636">
        <ele>207</ele>
        <time>2025-03-31T11:47:46.000Z</time>
      </trkpt>
      <trkpt lat="43.49004" lon="6.18625">
        <ele>207</ele>
        <time>2025-03-31T11:47:59.000Z</time>
      </trkpt>
      <trkpt lat="43.48998" lon="6.18615">
        <ele>207</ele>
        <time>2025-03-31T11:48:09.000Z</time>
      </trkpt>
      <trkpt lat="43.48995" lon="6.18601">
        <ele>205</ele>
        <time>2025-03-31T11:48:20.000Z</time>
      </trkpt>
      <trkpt lat="43.48991" lon="6.18589">
        <ele>205</ele>
        <time>2025-03-31T11:48:30.000Z</time>
      </trkpt>
      <trkpt lat="43.48981" lon="6.18581">
        <ele>205</ele>
        <time>2025-03-31T11:48:40.000Z</time>
      </trkpt>
      <trkpt lat="43.48975" lon="6.1857">
        <ele>203</ele>
        <time>2025-03-31T11:48:56.000Z</time>
      </trkpt>
      <trkpt lat="43.48971" lon="6.18554">
        <ele>203</ele>
        <time>2025-03-31T11:49:06.000Z</time>
      </trkpt>
      <trkpt lat="43.48964" lon="6.18541">
        <ele>202</ele>
        <time>2025-03-31T11:49:16.000Z</time>
      </trkpt>
      <trkpt lat="43.48955" lon="6.18531">
        <ele>201</ele>
        <time>2025-03-31T11:49:26.000Z</time>
      </trkpt>
      <trkpt lat="43.48953" lon="6.18517">
        <ele>201</ele>
        <time>2025-03-31T11:49:36.000Z</time>
      </trkpt>
      <trkpt lat="43.48958" lon="6.18502">
        <ele>199</ele>
        <time>2025-03-31T11:49:47.000Z</time>
      </trkpt>
      <trkpt lat="43.48951" lon="6.18491">
        <ele>199</ele>
        <time>2025-03-31T11:49:57.000Z</time>
      </trkpt>
      <trkpt lat="43.48941" lon="6.18496">
        <ele>199</ele>
        <time>2025-03-31T11:50:07.000Z</time>
      </trkpt>
      <trkpt lat="43.48937" lon="6.18508">
        <ele>199</ele>
        <time>2025-03-31T11:50:20.000Z</time>
      </trkpt>
      <trkpt lat="43.48929" lon="6.18512">
        <ele>200</ele>
        <time>2025-03-31T11:51:06.000Z</time>
      </trkpt>
      <trkpt lat="43.48923" lon="6.18522">
        <ele>200</ele>
        <time>2025-03-31T11:51:16.000Z</time>
      </trkpt>
      <trkpt lat="43.48922" lon="6.18535">
        <ele>201</ele>
        <time>2025-03-31T11:52:05.000Z</time>
      </trkpt>
      <trkpt lat="43.48923" lon="6.18547">
        <ele>201</ele>
        <time>2025-03-31T11:52:19.000Z</time>
      </trkpt>
      <trkpt lat="43.48912" lon="6.18557">
        <ele>201</ele>
        <time>2025-03-31T11:52:29.000Z</time>
      </trkpt>
      <trkpt lat="43.48902" lon="6.18559">
        <ele>200</ele>
        <time>2025-03-31T11:52:39.000Z</time>
      </trkpt>
      <trkpt lat="43.48894" lon="6.18564">
        <ele>200</ele>
        <time>2025-03-31T11:52:50.000Z</time>
      </trkpt>
      <trkpt lat="43.48892" lon="6.18577">
        <ele>201</ele>
        <time>2025-03-31T11:53:00.000Z</time>
      </trkpt>
      <trkpt lat="43.48889" lon="6.18589">
        <ele>201</ele>
        <time>2025-03-31T11:53:10.000Z</time>
      </trkpt>
      <trkpt lat="43.48882" lon="6.18597">
        <ele>201</ele>
        <time>2025-03-31T11:53:25.000Z</time>
      </trkpt>
      <trkpt lat="43.48877" lon="6.18608">
        <ele>201</ele>
        <time>2025-03-31T11:53:35.000Z</time>
      </trkpt>
      <trkpt lat="43.48873" lon="6.1862">
        <ele>201</ele>
        <time>2025-03-31T11:53:58.000Z</time>
      </trkpt>
      <trkpt lat="43.4887" lon="6.18634">
        <ele>202</ele>
        <time>2025-03-31T11:54:08.000Z</time>
      </trkpt>
      <trkpt lat="43.4887" lon="6.18646">
        <ele>202</ele>
        <time>2025-03-31T11:54:28.000Z</time>
      </trkpt>
      <trkpt lat="43.48876" lon="6.18657">
        <ele>203</ele>
        <time>2025-03-31T11:55:11.000Z</time>
      </trkpt>
      <trkpt lat="43.48873" lon="6.18679">
        <ele>203</ele>
        <time>2025-03-31T11:55:21.000Z</time>
      </trkpt>
      <trkpt lat="43.48877" lon="6.18696">
        <ele>204</ele>
        <time>2025-03-31T11:55:32.000Z</time>
      </trkpt>
      <trkpt lat="43.48886" lon="6.18697">
        <ele>206</ele>
        <time>2025-03-31T11:55:43.000Z</time>
      </trkpt>
      <trkpt lat="43.48891" lon="6.1871">
        <ele>206</ele>
        <time>2025-03-31T11:55:53.000Z</time>
      </trkpt>
      <trkpt lat="43.48889" lon="6.18722">
        <ele>206</ele>
        <time>2025-03-31T11:56:25.000Z</time>
      </trkpt>
      <trkpt lat="43.48888" lon="6.18734">
        <ele>207</ele>
        <time>2025-03-31T11:56:39.000Z</time>
      </trkpt>
      <trkpt lat="43.48883" lon="6.18747">
        <ele>208</ele>
        <time>2025-03-31T11:56:49.000Z</time>
      </trkpt>
      <trkpt lat="43.4888" lon="6.18759">
        <ele>208</ele>
        <time>2025-03-31T11:57:47.000Z</time>
      </trkpt>
      <trkpt lat="43.48873" lon="6.18772">
        <ele>208</ele>
        <time>2025-03-31T11:57:58.000Z</time>
      </trkpt>
      <trkpt lat="43.48864" lon="6.18773">
        <ele>208</ele>
        <time>2025-03-31T11:58:09.000Z</time>
      </trkpt>
      <trkpt lat="43.48855" lon="6.18769">
        <ele>206</ele>
        <time>2025-03-31T11:58:21.000Z</time>
      </trkpt>
      <trkpt lat="43.48845" lon="6.1876">
        <ele>204</ele>
        <time>2025-03-31T11:58:31.000Z</time>
      </trkpt>
      <trkpt lat="43.48835" lon="6.18755">
        <ele>202</ele>
        <time>2025-03-31T11:58:42.000Z</time>
      </trkpt>
      <trkpt lat="43.48827" lon="6.18749">
        <ele>201</ele>
        <time>2025-03-31T11:58:52.000Z</time>
      </trkpt>
      <trkpt lat="43.48822" lon="6.18738">
        <ele>199</ele>
        <time>2025-03-31T11:59:03.000Z</time>
      </trkpt>
      <trkpt lat="43.48825" lon="6.18723">
        <ele>199</ele>
        <time>2025-03-31T11:59:13.000Z</time>
      </trkpt>
      <trkpt lat="43.48823" lon="6.18711">
        <ele>198</ele>
        <time>2025-03-31T11:59:25.000Z</time>
      </trkpt>
      <trkpt lat="43.48817" lon="6.187">
        <ele>197</ele>
        <time>2025-03-31T11:59:43.000Z</time>
      </trkpt>
      <trkpt lat="43.4881" lon="6.18692">
        <ele>196</ele>
        <time>2025-03-31T12:00:05.000Z</time>
      </trkpt>
      <trkpt lat="43.48804" lon="6.18677">
        <ele>195</ele>
        <time>2025-03-31T12:00:15.000Z</time>
      </trkpt>
      <trkpt lat="43.48797" lon="6.18668">
        <ele>194</ele>
        <time>2025-03-31T12:00:38.000Z</time>
      </trkpt>
      <trkpt lat="43.48789" lon="6.18664">
        <ele>193</ele>
        <time>2025-03-31T12:00:48.000Z</time>
      </trkpt>
      <trkpt lat="43.48781" lon="6.18656">
        <ele>191</ele>
        <time>2025-03-31T12:01:04.000Z</time>
      </trkpt>
      <trkpt lat="43.48771" lon="6.18649">
        <ele>190</ele>
        <time>2025-03-31T12:01:14.000Z</time>
      </trkpt>
      <trkpt lat="43.48762" lon="6.18644">
        <ele>188</ele>
        <time>2025-03-31T12:01:24.000Z</time>
      </trkpt>
      <trkpt lat="43.48753" lon="6.18641">
        <ele>187</ele>
        <time>2025-03-31T12:07:36.000Z</time>
      </trkpt>
      <trkpt lat="43.48744" lon="6.18645">
        <ele>185</ele>
        <time>2025-03-31T12:10:13.000Z</time>
      </trkpt>
      <trkpt lat="43.48739" lon="6.18657">
        <ele>185</ele>
        <time>2025-03-31T12:10:30.000Z</time>
      </trkpt>
      <trkpt lat="43.48734" lon="6.18672">
        <ele>185</ele>
        <time>2025-03-31T12:10:40.000Z</time>
      </trkpt>
      <trkpt lat="43.4873" lon="6.18687">
        <ele>184</ele>
        <time>2025-03-31T12:10:50.000Z</time>
      </trkpt>
      <trkpt lat="43.4873" lon="6.187">
        <ele>183</ele>
        <time>2025-03-31T12:11:01.000Z</time>
      </trkpt>
      <trkpt lat="43.48729" lon="6.18717">
        <ele>183</ele>
        <time>2025-03-31T12:11:12.000Z</time>
      </trkpt>
      <trkpt lat="43.48726" lon="6.18733">
        <ele>181</ele>
        <time>2025-03-31T12:11:22.000Z</time>
      </trkpt>
      <trkpt lat="43.48723" lon="6.18751">
        <ele>182</ele>
        <time>2025-03-31T12:11:32.000Z</time>
      </trkpt>
      <trkpt lat="43.48718" lon="6.18764">
        <ele>181</ele>
        <time>2025-03-31T12:11:43.000Z</time>
      </trkpt>
      <trkpt lat="43.48711" lon="6.18774">
        <ele>179</ele>
        <time>2025-03-31T12:11:53.000Z</time>
      </trkpt>
      <trkpt lat="43.48703" lon="6.18768">
        <ele>177</ele>
        <time>2025-03-31T12:12:14.000Z</time>
      </trkpt>
      <trkpt lat="43.48694" lon="6.18763">
        <ele>174</ele>
        <time>2025-03-31T12:12:24.000Z</time>
      </trkpt>
      <trkpt lat="43.48688" lon="6.18753">
        <ele>173</ele>
        <time>2025-03-31T12:12:39.000Z</time>
      </trkpt>
      <trkpt lat="43.48687" lon="6.1874">
        <ele>173</ele>
        <time>2025-03-31T12:12:49.000Z</time>
      </trkpt>
      <trkpt lat="43.48679" lon="6.18723">
        <ele>170</ele>
        <time>2025-03-31T12:12:59.000Z</time>
      </trkpt>
      <trkpt lat="43.48672" lon="6.18707">
        <ele>169</ele>
        <time>2025-03-31T12:13:10.000Z</time>
      </trkpt>
      <trkpt lat="43.48667" lon="6.18694">
        <ele>167</ele>
        <time>2025-03-31T12:13:20.000Z</time>
      </trkpt>
      <trkpt lat="43.48665" lon="6.1868">
        <ele>167</ele>
        <time>2025-03-31T12:13:30.000Z</time>
      </trkpt>
      <trkpt lat="43.48657" lon="6.18673">
        <ele>166</ele>
        <time>2025-03-31T12:13:46.000Z</time>
      </trkpt>
      <trkpt lat="43.48648" lon="6.18672">
        <ele>164</ele>
        <time>2025-03-31T12:13:59.000Z</time>
      </trkpt>
      <trkpt lat="43.48638" lon="6.18668">
        <ele>162</ele>
        <time>2025-03-31T12:14:10.000Z</time>
      </trkpt>
      <trkpt lat="43.48631" lon="6.1866">
        <ele>162</ele>
        <time>2025-03-31T12:14:29.000Z</time>
      </trkpt>
      <trkpt lat="43.48625" lon="6.1865">
        <ele>162</ele>
        <time>2025-03-31T12:16:01.000Z</time>
      </trkpt>
      <trkpt lat="43.48618" lon="6.18636">
        <ele>161</ele>
        <time>2025-03-31T12:16:11.000Z</time>
      </trkpt>
      <trkpt lat="43.48613" lon="6.18626">
        <ele>160</ele>
        <time>2025-03-31T12:16:24.000Z</time>
      </trkpt>
      <trkpt lat="43.48606" lon="6.18612">
        <ele>159</ele>
        <time>2025-03-31T12:16:34.000Z</time>
      </trkpt>
      <trkpt lat="43.48597" lon="6.18608">
        <ele>158</ele>
        <time>2025-03-31T12:17:20.000Z</time>
      </trkpt>
      <trkpt lat="43.48586" lon="6.1861">
        <ele>157</ele>
        <time>2025-03-31T12:17:30.000Z</time>
      </trkpt>
      <trkpt lat="43.48577" lon="6.18614">
        <ele>156</ele>
        <time>2025-03-31T12:17:40.000Z</time>
      </trkpt>
      <trkpt lat="43.48566" lon="6.18611">
        <ele>155</ele>
        <time>2025-03-31T12:17:51.000Z</time>
      </trkpt>
      <trkpt lat="43.48555" lon="6.18607">
        <ele>154</ele>
        <time>2025-03-31T12:18:01.000Z</time>
      </trkpt>
      <trkpt lat="43.48544" lon="6.18604">
        <ele>153</ele>
        <time>2025-03-31T12:18:11.000Z</time>
      </trkpt>
      <trkpt lat="43.48534" lon="6.18602">
        <ele>153</ele>
        <time>2025-03-31T12:18:21.000Z</time>
      </trkpt>
      <trkpt lat="43.48524" lon="6.18599">
        <ele>152</ele>
        <time>2025-03-31T12:18:31.000Z</time>
      </trkpt>
      <trkpt lat="43.48514" lon="6.18596">
        <ele>151</ele>
        <time>2025-03-31T12:18:41.000Z</time>
      </trkpt>
      <trkpt lat="43.48505" lon="6.18594">
        <ele>151</ele>
        <time>2025-03-31T12:18:53.000Z</time>
      </trkpt>
      <trkpt lat="43.48495" lon="6.18594">
        <ele>150</ele>
        <time>2025-03-31T12:19:03.000Z</time>
      </trkpt>
      <trkpt lat="43.48485" lon="6.18593">
        <ele>149</ele>
        <time>2025-03-31T12:19:14.000Z</time>
      </trkpt>
      <trkpt lat="43.48476" lon="6.18589">
        <ele>148</ele>
        <time>2025-03-31T12:19:24.000Z</time>
      </trkpt>
      <trkpt lat="43.48467" lon="6.1859">
        <ele>148</ele>
        <time>2025-03-31T12:19:35.000Z</time>
      </trkpt>
      <trkpt lat="43.48457" lon="6.18592">
        <ele>147</ele>
        <time>2025-03-31T12:19:45.000Z</time>
      </trkpt>
      <trkpt lat="43.48447" lon="6.18591">
        <ele>146</ele>
        <time>2025-03-31T12:19:55.000Z</time>
      </trkpt>
      <trkpt lat="43.48437" lon="6.18591">
        <ele>145</ele>
        <time>2025-03-31T12:20:09.000Z</time>
      </trkpt>
      <trkpt lat="43.48428" lon="6.18591">
        <ele>145</ele>
        <time>2025-03-31T12:20:21.000Z</time>
      </trkpt>
      <trkpt lat="43.48418" lon="6.1859">
        <ele>144</ele>
        <time>2025-03-31T12:20:43.000Z</time>
      </trkpt>
      <trkpt lat="43.48408" lon="6.18593">
        <ele>143</ele>
        <time>2025-03-31T12:20:53.000Z</time>
      </trkpt>
      <trkpt lat="43.48398" lon="6.18595">
        <ele>143</ele>
        <time>2025-03-31T12:21:04.000Z</time>
      </trkpt>
      <trkpt lat="43.48388" lon="6.18598">
        <ele>143</ele>
        <time>2025-03-31T12:21:14.000Z</time>
      </trkpt>
      <trkpt lat="43.48379" lon="6.18601">
        <ele>142</ele>
        <time>2025-03-31T12:21:24.000Z</time>
      </trkpt>
      <trkpt lat="43.4837" lon="6.18604">
        <ele>142</ele>
        <time>2025-03-31T12:21:34.000Z</time>
      </trkpt>
      <trkpt lat="43.4836" lon="6.18603">
        <ele>141</ele>
        <time>2025-03-31T12:21:44.000Z</time>
      </trkpt>
      <trkpt lat="43.4835" lon="6.18606">
        <ele>141</ele>
        <time>2025-03-31T12:21:55.000Z</time>
      </trkpt>
      <trkpt lat="43.4834" lon="6.18611">
        <ele>140</ele>
        <time>2025-03-31T12:22:05.000Z</time>
      </trkpt>
      <trkpt lat="43.4833" lon="6.18616">
        <ele>140</ele>
        <time>2025-03-31T12:22:15.000Z</time>
      </trkpt>
      <trkpt lat="43.4832" lon="6.18621">
        <ele>140</ele>
        <time>2025-03-31T12:22:25.000Z</time>
      </trkpt>
      <trkpt lat="43.4831" lon="6.18626">
        <ele>140</ele>
        <time>2025-03-31T12:22:35.000Z</time>
      </trkpt>
      <trkpt lat="43.483" lon="6.18623">
        <ele>139</ele>
        <time>2025-03-31T12:22:46.000Z</time>
      </trkpt>
      <trkpt lat="43.48289" lon="6.18615">
        <ele>139</ele>
        <time>2025-03-31T12:22:56.000Z</time>
      </trkpt>
      <trkpt lat="43.48279" lon="6.18614">
        <ele>139</ele>
        <time>2025-03-31T12:23:07.000Z</time>
      </trkpt>
      <trkpt lat="43.48271" lon="6.18609">
        <ele>139</ele>
        <time>2025-03-31T12:23:40.000Z</time>
      </trkpt>
      <trkpt lat="43.48257" lon="6.18605">
        <ele>138</ele>
        <time>2025-03-31T12:23:50.000Z</time>
      </trkpt>
      <trkpt lat="43.48248" lon="6.18603">
        <ele>138</ele>
        <time>2025-03-31T12:24:47.000Z</time>
      </trkpt>
      <trkpt lat="43.48235" lon="6.18597">
        <ele>138</ele>
        <time>2025-03-31T12:24:57.000Z</time>
      </trkpt>
      <trkpt lat="43.48224" lon="6.18593">
        <ele>138</ele>
        <time>2025-03-31T12:25:07.000Z</time>
      </trkpt>
      <trkpt lat="43.48215" lon="6.18591">
        <ele>137</ele>
        <time>2025-03-31T12:25:19.000Z</time>
      </trkpt>
      <trkpt lat="43.48207" lon="6.18587">
        <ele>137</ele>
        <time>2025-03-31T12:25:30.000Z</time>
      </trkpt>
      <trkpt lat="43.48198" lon="6.18581">
        <ele>137</ele>
        <time>2025-03-31T12:25:41.000Z</time>
      </trkpt>
      <trkpt lat="43.48187" lon="6.1858">
        <ele>137</ele>
        <time>2025-03-31T12:25:51.000Z</time>
      </trkpt>
      <trkpt lat="43.48177" lon="6.18575">
        <ele>137</ele>
        <time>2025-03-31T12:26:01.000Z</time>
      </trkpt>
      <trkpt lat="43.48167" lon="6.18573">
        <ele>137</ele>
        <time>2025-03-31T12:26:11.000Z</time>
      </trkpt>
      <trkpt lat="43.48158" lon="6.1857">
        <ele>137</ele>
        <time>2025-03-31T12:26:21.000Z</time>
      </trkpt>
      <trkpt lat="43.4815" lon="6.18565">
        <ele>136</ele>
        <time>2025-03-31T12:26:33.000Z</time>
      </trkpt>
      <trkpt lat="43.4814" lon="6.18563">
        <ele>136</ele>
        <time>2025-03-31T12:26:45.000Z</time>
      </trkpt>
      <trkpt lat="43.48134" lon="6.18555">
        <ele>136</ele>
        <time>2025-03-31T12:26:56.000Z</time>
      </trkpt>
      <trkpt lat="43.48128" lon="6.18544">
        <ele>135</ele>
        <time>2025-03-31T12:27:11.000Z</time>
      </trkpt>
      <trkpt lat="43.48121" lon="6.18534">
        <ele>135</ele>
        <time>2025-03-31T12:27:23.000Z</time>
      </trkpt>
      <trkpt lat="43.48113" lon="6.18523">
        <ele>135</ele>
        <time>2025-03-31T12:27:33.000Z</time>
      </trkpt>
      <trkpt lat="43.48107" lon="6.18512">
        <ele>135</ele>
        <time>2025-03-31T12:27:43.000Z</time>
      </trkpt>
      <trkpt lat="43.481" lon="6.18502">
        <ele>134</ele>
        <time>2025-03-31T12:27:54.000Z</time>
      </trkpt>
      <trkpt lat="43.48092" lon="6.18496">
        <ele>134</ele>
        <time>2025-03-31T12:28:04.000Z</time>
      </trkpt>
      <trkpt lat="43.48085" lon="6.18486">
        <ele>134</ele>
        <time>2025-03-31T12:28:14.000Z</time>
      </trkpt>
      <trkpt lat="43.48076" lon="6.18478">
        <ele>134</ele>
        <time>2025-03-31T12:28:24.000Z</time>
      </trkpt>
      <trkpt lat="43.48069" lon="6.18471">
        <ele>134</ele>
        <time>2025-03-31T12:28:35.000Z</time>
      </trkpt>
      <trkpt lat="43.48059" lon="6.18468">
        <ele>134</ele>
        <time>2025-03-31T12:28:45.000Z</time>
      </trkpt>
      <trkpt lat="43.4805" lon="6.18463">
        <ele>134</ele>
        <time>2025-03-31T12:28:55.000Z</time>
      </trkpt>
      <trkpt lat="43.48044" lon="6.1845">
        <ele>134</ele>
        <time>2025-03-31T12:29:05.000Z</time>
      </trkpt>
      <trkpt lat="43.48034" lon="6.18443">
        <ele>133</ele>
        <time>2025-03-31T12:29:15.000Z</time>
      </trkpt>
      <trkpt lat="43.48027" lon="6.18436">
        <ele>134</ele>
        <time>2025-03-31T12:29:26.000Z</time>
      </trkpt>
      <trkpt lat="43.48018" lon="6.18428">
        <ele>134</ele>
        <time>2025-03-31T12:29:36.000Z</time>
      </trkpt>
      <trkpt lat="43.48009" lon="6.1842">
        <ele>134</ele>
        <time>2025-03-31T12:29:46.000Z</time>
      </trkpt>
      <trkpt lat="43.48001" lon="6.18414">
        <ele>134</ele>
        <time>2025-03-31T12:29:57.000Z</time>
      </trkpt>
      <trkpt lat="43.47993" lon="6.18404">
        <ele>134</ele>
        <time>2025-03-31T12:30:07.000Z</time>
      </trkpt>
      <trkpt lat="43.47983" lon="6.18398">
        <ele>134</ele>
        <time>2025-03-31T12:30:18.000Z</time>
      </trkpt>
      <trkpt lat="43.47976" lon="6.18387">
        <ele>133</ele>
        <time>2025-03-31T12:30:28.000Z</time>
      </trkpt>
      <trkpt lat="43.47969" lon="6.18378">
        <ele>133</ele>
        <time>2025-03-31T12:30:40.000Z</time>
      </trkpt>
      <trkpt lat="43.4796" lon="6.18368">
        <ele>133</ele>
        <time>2025-03-31T12:30:50.000Z</time>
      </trkpt>
      <trkpt lat="43.47961" lon="6.18351">
        <ele>133</ele>
        <time>2025-03-31T12:31:01.000Z</time>
      </trkpt>
      <trkpt lat="43.47955" lon="6.18337">
        <ele>133</ele>
        <time>2025-03-31T12:31:11.000Z</time>
      </trkpt>
      <trkpt lat="43.47946" lon="6.18338">
        <ele>133</ele>
        <time>2025-03-31T12:31:21.000Z</time>
      </trkpt>
      <trkpt lat="43.47939" lon="6.18349">
        <ele>133</ele>
        <time>2025-03-31T12:31:31.000Z</time>
      </trkpt>
      <trkpt lat="43.47929" lon="6.18357">
        <ele>133</ele>
        <time>2025-03-31T12:31:41.000Z</time>
      </trkpt>
      <trkpt lat="43.47918" lon="6.18363">
        <ele>133</ele>
        <time>2025-03-31T12:31:51.000Z</time>
      </trkpt>
      <trkpt lat="43.47909" lon="6.18354">
        <ele>133</ele>
        <time>2025-03-31T12:32:02.000Z</time>
      </trkpt>
      <trkpt lat="43.47899" lon="6.18347">
        <ele>131</ele>
        <time>2025-03-31T12:32:12.000Z</time>
      </trkpt>
      <trkpt lat="43.47891" lon="6.18339">
        <ele>131</ele>
        <time>2025-03-31T12:32:22.000Z</time>
      </trkpt>
      <trkpt lat="43.47886" lon="6.18329">
        <ele>131</ele>
        <time>2025-03-31T12:32:34.000Z</time>
      </trkpt>
      <trkpt lat="43.47876" lon="6.18327">
        <ele>130</ele>
        <time>2025-03-31T12:32:44.000Z</time>
      </trkpt>
      <trkpt lat="43.47867" lon="6.18318">
        <ele>130</ele>
        <time>2025-03-31T12:32:54.000Z</time>
      </trkpt>
      <trkpt lat="43.47859" lon="6.18311">
        <ele>130</ele>
        <time>2025-03-31T12:34:29.000Z</time>
      </trkpt>
      <trkpt lat="43.47852" lon="6.18303">
        <ele>130</ele>
        <time>2025-03-31T12:35:29.000Z</time>
      </trkpt>
      <trkpt lat="43.47843" lon="6.18299">
        <ele>130</ele>
        <time>2025-03-31T12:35:39.000Z</time>
      </trkpt>
      <trkpt lat="43.47834" lon="6.18298">
        <ele>129</ele>
        <time>2025-03-31T12:37:40.000Z</time>
      </trkpt>
      <trkpt lat="43.47826" lon="6.18293">
        <ele>126</ele>
        <time>2025-03-31T12:37:50.000Z</time>
      </trkpt>
      <trkpt lat="43.47814" lon="6.18293">
        <ele>120</ele>
        <time>2025-03-31T12:38:26.000Z</time>
      </trkpt>
      <trkpt lat="43.47805" lon="6.18291">
        <ele>118</ele>
        <time>2025-03-31T12:39:09.000Z</time>
      </trkpt>
      <trkpt lat="43.47796" lon="6.18295">
        <ele>121</ele>
        <time>2025-03-31T12:39:23.000Z</time>
      </trkpt>
      <trkpt lat="43.47784" lon="6.18288">
        <ele>129</ele>
        <time>2025-03-31T12:39:33.000Z</time>
      </trkpt>
      <trkpt lat="43.47775" lon="6.1829">
        <ele>131</ele>
        <time>2025-03-31T12:39:44.000Z</time>
      </trkpt>
      <trkpt lat="43.47765" lon="6.1829">
        <ele>131</ele>
        <time>2025-03-31T12:40:02.000Z</time>
      </trkpt>
      <trkpt lat="43.47759" lon="6.183">
        <ele>131</ele>
        <time>2025-03-31T12:40:12.000Z</time>
      </trkpt>
      <trkpt lat="43.47755" lon="6.18311">
        <ele>132</ele>
        <time>2025-03-31T12:40:22.000Z</time>
      </trkpt>
      <trkpt lat="43.47755" lon="6.18324">
        <ele>132</ele>
        <time>2025-03-31T12:40:36.000Z</time>
      </trkpt>
      <trkpt lat="43.4776" lon="6.18336">
        <ele>131</ele>
        <time>2025-03-31T12:40:49.000Z</time>
      </trkpt>
      <trkpt lat="43.47773" lon="6.18332">
        <ele>131</ele>
        <time>2025-03-31T12:40:59.000Z</time>
      </trkpt>
      <trkpt lat="43.47764" lon="6.18327">
        <ele>131</ele>
        <time>2025-03-31T12:48:12.000Z</time>
      </trkpt>
      <trkpt lat="43.47751" lon="6.18331">
        <ele>132</ele>
        <time>2025-03-31T12:48:23.000Z</time>
      </trkpt>
      <trkpt lat="43.47754" lon="6.18313">
        <ele>132</ele>
        <time>2025-03-31T12:48:33.000Z</time>
      </trkpt>
      <trkpt lat="43.47756" lon="6.18292">
        <ele>132</ele>
        <time>2025-03-31T12:48:43.000Z</time>
      </trkpt>
      <trkpt lat="43.4776" lon="6.18273">
        <ele>131</ele>
        <time>2025-03-31T12:48:53.000Z</time>
      </trkpt>
      <trkpt lat="43.47769" lon="6.18269">
        <ele>131</ele>
        <time>2025-03-31T12:51:52.000Z</time>
      </trkpt>
      <trkpt lat="43.47776" lon="6.18277">
        <ele>130</ele>
        <time>2025-03-31T13:07:20.000Z</time>
      </trkpt>
      <trkpt lat="43.47768" lon="6.18281">
        <ele>131</ele>
        <time>2025-03-31T13:20:34.000Z</time>
      </trkpt>
      <trkpt lat="43.47759" lon="6.18292">
        <ele>131</ele>
        <time>2025-03-31T13:20:44.000Z</time>
      </trkpt>
      <trkpt lat="43.47754" lon="6.18306">
        <ele>132</ele>
        <time>2025-03-31T13:20:54.000Z</time>
      </trkpt>
      <trkpt lat="43.47752" lon="6.18318">
        <ele>132</ele>
        <time>2025-03-31T13:21:05.000Z</time>
      </trkpt>
      <trkpt lat="43.47753" lon="6.18331">
        <ele>132</ele>
        <time>2025-03-31T13:21:15.000Z</time>
      </trkpt>
      <trkpt lat="43.47765" lon="6.18333">
        <ele>131</ele>
        <time>2025-03-31T13:21:26.000Z</time>
      </trkpt>
      <trkpt lat="43.47773" lon="6.18327">
        <ele>131</ele>
        <time>2025-03-31T13:22:09.000Z</time>
      </trkpt>
      <trkpt lat="43.47772" lon="6.18339">
        <ele>131</ele>
        <time>2025-03-31T13:25:03.000Z</time>
      </trkpt>
      <trkpt lat="43.47771" lon="6.18327">
        <ele>131</ele>
        <time>2025-03-31T13:26:26.000Z</time>
      </trkpt>
    </trkseg>
  </trk>
</gpx>